<?xml version="1.0" encoding="UTF-8" standalone="no" ?>
<gpx xmlns="http://www.topografix.com/GPX/1/1" xmlns:xsi="http://www.w3.org/2001/XMLSchema-instance" xsi:schemaLocation="http://www.topografix.com/GPX/1/1 http://www.topografix.com/GPX/1/1/gpx.xsd" version="1.1" creator="VisuGPX - https://www.visugpx.com">
  <metadata>
    <name>Les Borrys - Massifs des cèdres</name>
    <desc><![CDATA[Les Borrys - Massifs des cèdres.
Très belles crètes]]></desc>
  </metadata>
  <trk>
    <name><![CDATA[merindole]]></name>
    <trkseg>
      <trkpt lat="43.75884" lon="5.236">
        <ele>155.696503</ele>
        <time>2018-11-16T08:44:24Z</time>
      </trkpt>
      <trkpt lat="43.75886" lon="5.23626">
        <ele>155.187561</ele>
        <time>2018-11-16T08:44:40Z</time>
      </trkpt>
      <trkpt lat="43.75899" lon="5.23644">
        <ele>155.222626</ele>
        <time>2018-11-16T08:44:56Z</time>
      </trkpt>
      <trkpt lat="43.7591" lon="5.23663">
        <ele>154.989136</ele>
        <time>2018-11-16T08:45:11Z</time>
      </trkpt>
      <trkpt lat="43.75924" lon="5.23681">
        <ele>156.263336</ele>
        <time>2018-11-16T08:45:27Z</time>
      </trkpt>
      <trkpt lat="43.75938" lon="5.23697">
        <ele>158.113312</ele>
        <time>2018-11-16T08:45:43Z</time>
      </trkpt>
      <trkpt lat="43.75949" lon="5.23717">
        <ele>158.616959</ele>
        <time>2018-11-16T08:45:59Z</time>
      </trkpt>
      <trkpt lat="43.75962" lon="5.23733">
        <ele>158.957886</ele>
        <time>2018-11-16T08:46:14Z</time>
      </trkpt>
      <trkpt lat="43.75981" lon="5.23749">
        <ele>158.953812</ele>
        <time>2018-11-16T08:46:30Z</time>
      </trkpt>
      <trkpt lat="43.75998" lon="5.23761">
        <ele>159.741821</ele>
        <time>2018-11-16T08:46:46Z</time>
      </trkpt>
      <trkpt lat="43.76016" lon="5.23771">
        <ele>161.641525</ele>
        <time>2018-11-16T08:47:01Z</time>
      </trkpt>
      <trkpt lat="43.76032" lon="5.23785">
        <ele>162.880035</ele>
        <time>2018-11-16T08:47:17Z</time>
      </trkpt>
      <trkpt lat="43.7605" lon="5.23798">
        <ele>163.861191</ele>
        <time>2018-11-16T08:47:33Z</time>
      </trkpt>
      <trkpt lat="43.76065" lon="5.2381">
        <ele>164.160324</ele>
        <time>2018-11-16T08:47:49Z</time>
      </trkpt>
      <trkpt lat="43.76084" lon="5.23823">
        <ele>164.22229</ele>
        <time>2018-11-16T08:48:05Z</time>
      </trkpt>
      <trkpt lat="43.76104" lon="5.23834">
        <ele>165.510101</ele>
        <time>2018-11-16T08:48:21Z</time>
      </trkpt>
      <trkpt lat="43.76122" lon="5.23842">
        <ele>167.681305</ele>
        <time>2018-11-16T08:48:36Z</time>
      </trkpt>
      <trkpt lat="43.76139" lon="5.2385">
        <ele>169.869965</ele>
        <time>2018-11-16T08:48:52Z</time>
      </trkpt>
      <trkpt lat="43.76156" lon="5.23859">
        <ele>172.06015</ele>
        <time>2018-11-16T08:49:07Z</time>
      </trkpt>
      <trkpt lat="43.76177" lon="5.23865">
        <ele>175.079819</ele>
        <time>2018-11-16T08:49:23Z</time>
      </trkpt>
      <trkpt lat="43.76196" lon="5.23871">
        <ele>178.17836</ele>
        <time>2018-11-16T08:49:38Z</time>
      </trkpt>
      <trkpt lat="43.76211" lon="5.23869">
        <ele>180.832443</ele>
        <time>2018-11-16T08:49:53Z</time>
      </trkpt>
      <trkpt lat="43.76228" lon="5.23874">
        <ele>183.27951</ele>
        <time>2018-11-16T08:50:09Z</time>
      </trkpt>
      <trkpt lat="43.76242" lon="5.23894">
        <ele>182.913071</ele>
        <time>2018-11-16T08:50:25Z</time>
      </trkpt>
      <trkpt lat="43.7625" lon="5.23918">
        <ele>181.276581</ele>
        <time>2018-11-16T08:50:40Z</time>
      </trkpt>
      <trkpt lat="43.76264" lon="5.2394">
        <ele>186.068939</ele>
        <time>2018-11-16T08:50:56Z</time>
      </trkpt>
      <trkpt lat="43.76281" lon="5.2395">
        <ele>188.036743</ele>
        <time>2018-11-16T08:51:12Z</time>
      </trkpt>
      <trkpt lat="43.76301" lon="5.23951">
        <ele>188.586761</ele>
        <time>2018-11-16T08:51:28Z</time>
      </trkpt>
      <trkpt lat="43.7632" lon="5.23958">
        <ele>189.382416</ele>
        <time>2018-11-16T08:51:43Z</time>
      </trkpt>
      <trkpt lat="43.7634" lon="5.23967">
        <ele>190.172836</ele>
        <time>2018-11-16T08:51:59Z</time>
      </trkpt>
      <trkpt lat="43.76358" lon="5.23977">
        <ele>190.901276</ele>
        <time>2018-11-16T08:52:15Z</time>
      </trkpt>
      <trkpt lat="43.76377" lon="5.23985">
        <ele>190.921814</ele>
        <time>2018-11-16T08:52:30Z</time>
      </trkpt>
      <trkpt lat="43.76395" lon="5.23995">
        <ele>190.03566</ele>
        <time>2018-11-16T08:52:46Z</time>
      </trkpt>
      <trkpt lat="43.76415" lon="5.24005">
        <ele>189.920364</ele>
        <time>2018-11-16T08:53:01Z</time>
      </trkpt>
      <trkpt lat="43.76435" lon="5.24013">
        <ele>191.792374</ele>
        <time>2018-11-16T08:53:17Z</time>
      </trkpt>
      <trkpt lat="43.76458" lon="5.24013">
        <ele>192.198517</ele>
        <time>2018-11-16T08:53:33Z</time>
      </trkpt>
      <trkpt lat="43.76478" lon="5.24017">
        <ele>193.05722</ele>
        <time>2018-11-16T08:53:48Z</time>
      </trkpt>
      <trkpt lat="43.76498" lon="5.24019">
        <ele>193.560379</ele>
        <time>2018-11-16T08:54:04Z</time>
      </trkpt>
      <trkpt lat="43.76512" lon="5.24018">
        <ele>194.381241</ele>
        <time>2018-11-16T08:54:28Z</time>
      </trkpt>
      <trkpt lat="43.76524" lon="5.24">
        <ele>194.319916</ele>
        <time>2018-11-16T08:54:44Z</time>
      </trkpt>
      <trkpt lat="43.76524" lon="5.2398">
        <ele>196.206589</ele>
        <time>2018-11-16T08:55:00Z</time>
      </trkpt>
      <trkpt lat="43.76526" lon="5.23956">
        <ele>198.637924</ele>
        <time>2018-11-16T08:55:16Z</time>
      </trkpt>
      <trkpt lat="43.76529" lon="5.23935">
        <ele>200.65596</ele>
        <time>2018-11-16T08:55:31Z</time>
      </trkpt>
      <trkpt lat="43.76539" lon="5.2392">
        <ele>201.837631</ele>
        <time>2018-11-16T08:55:46Z</time>
      </trkpt>
      <trkpt lat="43.76559" lon="5.23912">
        <ele>202.165466</ele>
        <time>2018-11-16T08:56:02Z</time>
      </trkpt>
      <trkpt lat="43.76577" lon="5.2391">
        <ele>201.82547</ele>
        <time>2018-11-16T08:56:18Z</time>
      </trkpt>
      <trkpt lat="43.76592" lon="5.23902">
        <ele>203.392868</ele>
        <time>2018-11-16T08:56:33Z</time>
      </trkpt>
      <trkpt lat="43.76609" lon="5.23898">
        <ele>205.667084</ele>
        <time>2018-11-16T08:56:49Z</time>
      </trkpt>
      <trkpt lat="43.76623" lon="5.23884">
        <ele>207.589142</ele>
        <time>2018-11-16T08:57:04Z</time>
      </trkpt>
      <trkpt lat="43.76627" lon="5.23865">
        <ele>208.356049</ele>
        <time>2018-11-16T08:57:20Z</time>
      </trkpt>
      <trkpt lat="43.76635" lon="5.23846">
        <ele>208.922607</ele>
        <time>2018-11-16T08:57:36Z</time>
      </trkpt>
      <trkpt lat="43.76645" lon="5.23828">
        <ele>209.412842</ele>
        <time>2018-11-16T08:57:52Z</time>
      </trkpt>
      <trkpt lat="43.76646" lon="5.23809">
        <ele>211.012634</ele>
        <time>2018-11-16T08:58:13Z</time>
      </trkpt>
      <trkpt lat="43.76652" lon="5.2379">
        <ele>212.376831</ele>
        <time>2018-11-16T08:58:30Z</time>
      </trkpt>
      <trkpt lat="43.76655" lon="5.23771">
        <ele>213.827744</ele>
        <time>2018-11-16T08:58:45Z</time>
      </trkpt>
      <trkpt lat="43.76663" lon="5.23756">
        <ele>214.694</ele>
        <time>2018-11-16T08:59:07Z</time>
      </trkpt>
      <trkpt lat="43.76674" lon="5.23744">
        <ele>216.063019</ele>
        <time>2018-11-16T08:59:24Z</time>
      </trkpt>
      <trkpt lat="43.76684" lon="5.2373">
        <ele>217.571411</ele>
        <time>2018-11-16T08:59:39Z</time>
      </trkpt>
      <trkpt lat="43.76695" lon="5.23715">
        <ele>219.01593</ele>
        <time>2018-11-16T08:59:54Z</time>
      </trkpt>
      <trkpt lat="43.7669" lon="5.23697">
        <ele>219.712296</ele>
        <time>2018-11-16T09:00:11Z</time>
      </trkpt>
      <trkpt lat="43.76677" lon="5.23702">
        <ele>218.891769</ele>
        <time>2018-11-16T09:00:27Z</time>
      </trkpt>
      <trkpt lat="43.76664" lon="5.23696">
        <ele>218.881424</ele>
        <time>2018-11-16T09:00:42Z</time>
      </trkpt>
      <trkpt lat="43.76656" lon="5.23677">
        <ele>220.214737</ele>
        <time>2018-11-16T09:00:58Z</time>
      </trkpt>
      <trkpt lat="43.76649" lon="5.23657">
        <ele>221.349762</ele>
        <time>2018-11-16T09:01:13Z</time>
      </trkpt>
      <trkpt lat="43.76645" lon="5.23636">
        <ele>222.60614</ele>
        <time>2018-11-16T09:01:28Z</time>
      </trkpt>
      <trkpt lat="43.76649" lon="5.23615">
        <ele>223.914001</ele>
        <time>2018-11-16T09:01:44Z</time>
      </trkpt>
      <trkpt lat="43.76655" lon="5.23594">
        <ele>225.213135</ele>
        <time>2018-11-16T09:01:59Z</time>
      </trkpt>
      <trkpt lat="43.76666" lon="5.23572">
        <ele>226.557159</ele>
        <time>2018-11-16T09:02:15Z</time>
      </trkpt>
      <trkpt lat="43.76672" lon="5.23554">
        <ele>227.345398</ele>
        <time>2018-11-16T09:02:30Z</time>
      </trkpt>
      <trkpt lat="43.76675" lon="5.2353">
        <ele>228.503357</ele>
        <time>2018-11-16T09:02:45Z</time>
      </trkpt>
      <trkpt lat="43.76682" lon="5.23507">
        <ele>229.647522</ele>
        <time>2018-11-16T09:03:01Z</time>
      </trkpt>
      <trkpt lat="43.76688" lon="5.23489">
        <ele>230.816528</ele>
        <time>2018-11-16T09:03:17Z</time>
      </trkpt>
      <trkpt lat="43.76694" lon="5.23465">
        <ele>232.698608</ele>
        <time>2018-11-16T09:03:32Z</time>
      </trkpt>
      <trkpt lat="43.76691" lon="5.23446">
        <ele>234.073486</ele>
        <time>2018-11-16T09:04:33Z</time>
      </trkpt>
      <trkpt lat="43.76679" lon="5.23423">
        <ele>235.713135</ele>
        <time>2018-11-16T09:04:48Z</time>
      </trkpt>
      <trkpt lat="43.76679" lon="5.234">
        <ele>236.694763</ele>
        <time>2018-11-16T09:05:04Z</time>
      </trkpt>
      <trkpt lat="43.76693" lon="5.2338">
        <ele>237.365814</ele>
        <time>2018-11-16T09:05:19Z</time>
      </trkpt>
      <trkpt lat="43.767" lon="5.23355">
        <ele>238.020401</ele>
        <time>2018-11-16T09:05:35Z</time>
      </trkpt>
      <trkpt lat="43.76704" lon="5.23332">
        <ele>238.575882</ele>
        <time>2018-11-16T09:05:50Z</time>
      </trkpt>
      <trkpt lat="43.76703" lon="5.23304">
        <ele>238.955963</ele>
        <time>2018-11-16T09:06:06Z</time>
      </trkpt>
      <trkpt lat="43.76706" lon="5.23277">
        <ele>239.236481</ele>
        <time>2018-11-16T09:06:22Z</time>
      </trkpt>
      <trkpt lat="43.7671" lon="5.23258">
        <ele>239.3629</ele>
        <time>2018-11-16T09:06:37Z</time>
      </trkpt>
      <trkpt lat="43.76717" lon="5.23232">
        <ele>239.013779</ele>
        <time>2018-11-16T09:06:53Z</time>
      </trkpt>
      <trkpt lat="43.76728" lon="5.23212">
        <ele>238.561218</ele>
        <time>2018-11-16T09:07:08Z</time>
      </trkpt>
      <trkpt lat="43.76737" lon="5.23185">
        <ele>238.226471</ele>
        <time>2018-11-16T09:07:23Z</time>
      </trkpt>
      <trkpt lat="43.76755" lon="5.2317">
        <ele>238.069214</ele>
        <time>2018-11-16T09:07:39Z</time>
      </trkpt>
      <trkpt lat="43.76765" lon="5.23156">
        <ele>236.505585</ele>
        <time>2018-11-16T09:07:59Z</time>
      </trkpt>
      <trkpt lat="43.76774" lon="5.23134">
        <ele>233.206909</ele>
        <time>2018-11-16T09:08:14Z</time>
      </trkpt>
      <trkpt lat="43.76767" lon="5.2315">
        <ele>235.744019</ele>
        <time>2018-11-16T09:08:51Z</time>
      </trkpt>
      <trkpt lat="43.76786" lon="5.23151">
        <ele>235.986084</ele>
        <time>2018-11-16T09:09:07Z</time>
      </trkpt>
      <trkpt lat="43.76797" lon="5.23138">
        <ele>233.923492</ele>
        <time>2018-11-16T09:09:29Z</time>
      </trkpt>
      <trkpt lat="43.76812" lon="5.23122">
        <ele>231.172714</ele>
        <time>2018-11-16T09:09:44Z</time>
      </trkpt>
      <trkpt lat="43.7683" lon="5.23115">
        <ele>229.68158</ele>
        <time>2018-11-16T09:09:59Z</time>
      </trkpt>
      <trkpt lat="43.76853" lon="5.23116">
        <ele>231.189667</ele>
        <time>2018-11-16T09:10:15Z</time>
      </trkpt>
      <trkpt lat="43.76872" lon="5.23112">
        <ele>231.883942</ele>
        <time>2018-11-16T09:10:30Z</time>
      </trkpt>
      <trkpt lat="43.76895" lon="5.2311">
        <ele>232.933365</ele>
        <time>2018-11-16T09:10:46Z</time>
      </trkpt>
      <trkpt lat="43.76912" lon="5.23093">
        <ele>230.601013</ele>
        <time>2018-11-16T09:11:01Z</time>
      </trkpt>
      <trkpt lat="43.76931" lon="5.23089">
        <ele>231.528534</ele>
        <time>2018-11-16T09:11:16Z</time>
      </trkpt>
      <trkpt lat="43.76951" lon="5.23085">
        <ele>232.690613</ele>
        <time>2018-11-16T09:11:32Z</time>
      </trkpt>
      <trkpt lat="43.7697" lon="5.23074">
        <ele>232.905304</ele>
        <time>2018-11-16T09:11:47Z</time>
      </trkpt>
      <trkpt lat="43.76989" lon="5.23064">
        <ele>233.154221</ele>
        <time>2018-11-16T09:12:02Z</time>
      </trkpt>
      <trkpt lat="43.77009" lon="5.23051">
        <ele>232.937637</ele>
        <time>2018-11-16T09:12:18Z</time>
      </trkpt>
      <trkpt lat="43.7703" lon="5.23054">
        <ele>235.655075</ele>
        <time>2018-11-16T09:12:33Z</time>
      </trkpt>
      <trkpt lat="43.77047" lon="5.23035">
        <ele>234.154388</ele>
        <time>2018-11-16T09:12:49Z</time>
      </trkpt>
      <trkpt lat="43.77069" lon="5.23027">
        <ele>234.840149</ele>
        <time>2018-11-16T09:13:05Z</time>
      </trkpt>
      <trkpt lat="43.77088" lon="5.23016">
        <ele>234.802002</ele>
        <time>2018-11-16T09:13:21Z</time>
      </trkpt>
      <trkpt lat="43.77082" lon="5.22995">
        <ele>230.80304</ele>
        <time>2018-11-16T09:13:37Z</time>
      </trkpt>
      <trkpt lat="43.77085" lon="5.22966">
        <ele>230.372894</ele>
        <time>2018-11-16T09:13:53Z</time>
      </trkpt>
      <trkpt lat="43.77096" lon="5.2294">
        <ele>230.66568</ele>
        <time>2018-11-16T09:14:09Z</time>
      </trkpt>
      <trkpt lat="43.77111" lon="5.22922">
        <ele>231.199036</ele>
        <time>2018-11-16T09:14:24Z</time>
      </trkpt>
      <trkpt lat="43.77129" lon="5.22905">
        <ele>232.955811</ele>
        <time>2018-11-16T09:14:39Z</time>
      </trkpt>
      <trkpt lat="43.77142" lon="5.22887">
        <ele>234.078445</ele>
        <time>2018-11-16T09:14:55Z</time>
      </trkpt>
      <trkpt lat="43.77161" lon="5.22881">
        <ele>234.174332</ele>
        <time>2018-11-16T09:15:10Z</time>
      </trkpt>
      <trkpt lat="43.77179" lon="5.22875">
        <ele>235.052795</ele>
        <time>2018-11-16T09:15:26Z</time>
      </trkpt>
      <trkpt lat="43.77196" lon="5.22862">
        <ele>235.611145</ele>
        <time>2018-11-16T09:15:42Z</time>
      </trkpt>
      <trkpt lat="43.77216" lon="5.22856">
        <ele>236.35968</ele>
        <time>2018-11-16T09:15:58Z</time>
      </trkpt>
      <trkpt lat="43.77238" lon="5.22849">
        <ele>236.663544</ele>
        <time>2018-11-16T09:16:14Z</time>
      </trkpt>
      <trkpt lat="43.77257" lon="5.22852">
        <ele>238.43924</ele>
        <time>2018-11-16T09:16:30Z</time>
      </trkpt>
      <trkpt lat="43.77276" lon="5.22849">
        <ele>240.095795</ele>
        <time>2018-11-16T09:16:46Z</time>
      </trkpt>
      <trkpt lat="43.77296" lon="5.22838">
        <ele>240.300812</ele>
        <time>2018-11-16T09:17:02Z</time>
      </trkpt>
      <trkpt lat="43.77315" lon="5.22828">
        <ele>241.446533</ele>
        <time>2018-11-16T09:17:18Z</time>
      </trkpt>
      <trkpt lat="43.77332" lon="5.22815">
        <ele>243.530884</ele>
        <time>2018-11-16T09:17:34Z</time>
      </trkpt>
      <trkpt lat="43.77352" lon="5.22806">
        <ele>246.174713</ele>
        <time>2018-11-16T09:17:50Z</time>
      </trkpt>
      <trkpt lat="43.77371" lon="5.22805">
        <ele>248.330841</ele>
        <time>2018-11-16T09:18:05Z</time>
      </trkpt>
      <trkpt lat="43.77388" lon="5.22798">
        <ele>249.779053</ele>
        <time>2018-11-16T09:18:20Z</time>
      </trkpt>
      <trkpt lat="43.77404" lon="5.22787">
        <ele>250.421448</ele>
        <time>2018-11-16T09:18:36Z</time>
      </trkpt>
      <trkpt lat="43.77418" lon="5.22776">
        <ele>250.280167</ele>
        <time>2018-11-16T09:18:51Z</time>
      </trkpt>
      <trkpt lat="43.77431" lon="5.22761">
        <ele>249.593948</ele>
        <time>2018-11-16T09:19:07Z</time>
      </trkpt>
      <trkpt lat="43.77449" lon="5.22748">
        <ele>249.452423</ele>
        <time>2018-11-16T09:19:23Z</time>
      </trkpt>
      <trkpt lat="43.77445" lon="5.22729">
        <ele>250.624634</ele>
        <time>2018-11-16T09:19:40Z</time>
      </trkpt>
      <trkpt lat="43.77442" lon="5.22706">
        <ele>252.259552</ele>
        <time>2018-11-16T09:19:55Z</time>
      </trkpt>
      <trkpt lat="43.77453" lon="5.22682">
        <ele>254.601257</ele>
        <time>2018-11-16T09:20:11Z</time>
      </trkpt>
      <trkpt lat="43.77461" lon="5.22667">
        <ele>256.128326</ele>
        <time>2018-11-16T09:20:32Z</time>
      </trkpt>
      <trkpt lat="43.77473" lon="5.22637">
        <ele>258.124512</ele>
        <time>2018-11-16T09:20:48Z</time>
      </trkpt>
      <trkpt lat="43.77484" lon="5.22616">
        <ele>259.6427</ele>
        <time>2018-11-16T09:21:04Z</time>
      </trkpt>
      <trkpt lat="43.77497" lon="5.22603">
        <ele>260.917725</ele>
        <time>2018-11-16T09:21:20Z</time>
      </trkpt>
      <trkpt lat="43.77508" lon="5.22589">
        <ele>263.190094</ele>
        <time>2018-11-16T09:21:35Z</time>
      </trkpt>
      <trkpt lat="43.7752" lon="5.2257">
        <ele>266.196198</ele>
        <time>2018-11-16T09:21:50Z</time>
      </trkpt>
      <trkpt lat="43.7753" lon="5.22548">
        <ele>268.261688</ele>
        <time>2018-11-16T09:22:05Z</time>
      </trkpt>
      <trkpt lat="43.77545" lon="5.22527">
        <ele>269.721405</ele>
        <time>2018-11-16T09:22:21Z</time>
      </trkpt>
      <trkpt lat="43.77557" lon="5.22512">
        <ele>270.02951</ele>
        <time>2018-11-16T09:22:36Z</time>
      </trkpt>
      <trkpt lat="43.77567" lon="5.22493">
        <ele>269.687225</ele>
        <time>2018-11-16T09:22:52Z</time>
      </trkpt>
      <trkpt lat="43.77577" lon="5.22474">
        <ele>269.576294</ele>
        <time>2018-11-16T09:23:07Z</time>
      </trkpt>
      <trkpt lat="43.77591" lon="5.22463">
        <ele>270.49649</ele>
        <time>2018-11-16T09:23:22Z</time>
      </trkpt>
      <trkpt lat="43.77608" lon="5.22456">
        <ele>272.195801</ele>
        <time>2018-11-16T09:23:37Z</time>
      </trkpt>
      <trkpt lat="43.77625" lon="5.22445">
        <ele>273.330261</ele>
        <time>2018-11-16T09:23:53Z</time>
      </trkpt>
      <trkpt lat="43.77639" lon="5.22434">
        <ele>273.828156</ele>
        <time>2018-11-16T09:24:08Z</time>
      </trkpt>
      <trkpt lat="43.77652" lon="5.22419">
        <ele>273.354767</ele>
        <time>2018-11-16T09:24:23Z</time>
      </trkpt>
      <trkpt lat="43.77666" lon="5.22404">
        <ele>274.550201</ele>
        <time>2018-11-16T09:24:39Z</time>
      </trkpt>
      <trkpt lat="43.77683" lon="5.22402">
        <ele>276.891174</ele>
        <time>2018-11-16T09:24:54Z</time>
      </trkpt>
      <trkpt lat="43.77699" lon="5.22393">
        <ele>279.168243</ele>
        <time>2018-11-16T09:25:10Z</time>
      </trkpt>
      <trkpt lat="43.77718" lon="5.22398">
        <ele>281.433044</ele>
        <time>2018-11-16T09:25:25Z</time>
      </trkpt>
      <trkpt lat="43.7773" lon="5.22389">
        <ele>282.915771</ele>
        <time>2018-11-16T09:25:40Z</time>
      </trkpt>
      <trkpt lat="43.77739" lon="5.22373">
        <ele>283.758942</ele>
        <time>2018-11-16T09:25:59Z</time>
      </trkpt>
      <trkpt lat="43.77744" lon="5.22352">
        <ele>283.956787</ele>
        <time>2018-11-16T09:26:15Z</time>
      </trkpt>
      <trkpt lat="43.77762" lon="5.2234">
        <ele>286.067505</ele>
        <time>2018-11-16T09:26:30Z</time>
      </trkpt>
      <trkpt lat="43.77778" lon="5.22332">
        <ele>288.635406</ele>
        <time>2018-11-16T09:26:45Z</time>
      </trkpt>
      <trkpt lat="43.77792" lon="5.22324">
        <ele>291.90802</ele>
        <time>2018-11-16T09:27:01Z</time>
      </trkpt>
      <trkpt lat="43.77809" lon="5.22316">
        <ele>295.591553</ele>
        <time>2018-11-16T09:27:17Z</time>
      </trkpt>
      <trkpt lat="43.77829" lon="5.22316">
        <ele>298.378693</ele>
        <time>2018-11-16T09:27:32Z</time>
      </trkpt>
      <trkpt lat="43.77842" lon="5.22324">
        <ele>299.257812</ele>
        <time>2018-11-16T09:27:50Z</time>
      </trkpt>
      <trkpt lat="43.77856" lon="5.22324">
        <ele>301.076355</ele>
        <time>2018-11-16T09:28:07Z</time>
      </trkpt>
      <trkpt lat="43.77874" lon="5.22322">
        <ele>303.683594</ele>
        <time>2018-11-16T09:28:23Z</time>
      </trkpt>
      <trkpt lat="43.77887" lon="5.22319">
        <ele>305.805847</ele>
        <time>2018-11-16T09:28:40Z</time>
      </trkpt>
      <trkpt lat="43.77902" lon="5.22319">
        <ele>307.779846</ele>
        <time>2018-11-16T09:28:57Z</time>
      </trkpt>
      <trkpt lat="43.77924" lon="5.22312">
        <ele>310.737305</ele>
        <time>2018-11-16T09:29:12Z</time>
      </trkpt>
      <trkpt lat="43.77943" lon="5.22314">
        <ele>311.012939</ele>
        <time>2018-11-16T09:29:28Z</time>
      </trkpt>
      <trkpt lat="43.77959" lon="5.22319">
        <ele>310.686951</ele>
        <time>2018-11-16T09:29:44Z</time>
      </trkpt>
      <trkpt lat="43.77971" lon="5.2233">
        <ele>309.713562</ele>
        <time>2018-11-16T09:30:06Z</time>
      </trkpt>
      <trkpt lat="43.77984" lon="5.2234">
        <ele>310.24292</ele>
        <time>2018-11-16T09:30:21Z</time>
      </trkpt>
      <trkpt lat="43.77995" lon="5.22353">
        <ele>311.616852</ele>
        <time>2018-11-16T09:30:36Z</time>
      </trkpt>
      <trkpt lat="43.78009" lon="5.22359">
        <ele>313.114197</ele>
        <time>2018-11-16T09:30:52Z</time>
      </trkpt>
      <trkpt lat="43.78021" lon="5.22367">
        <ele>314.840973</ele>
        <time>2018-11-16T09:31:07Z</time>
      </trkpt>
      <trkpt lat="43.78035" lon="5.22378">
        <ele>316.564148</ele>
        <time>2018-11-16T09:31:23Z</time>
      </trkpt>
      <trkpt lat="43.78054" lon="5.22383">
        <ele>318.168518</ele>
        <time>2018-11-16T09:31:39Z</time>
      </trkpt>
      <trkpt lat="43.78071" lon="5.22386">
        <ele>319.460022</ele>
        <time>2018-11-16T09:31:55Z</time>
      </trkpt>
      <trkpt lat="43.78087" lon="5.22386">
        <ele>321.080017</ele>
        <time>2018-11-16T09:32:10Z</time>
      </trkpt>
      <trkpt lat="43.78103" lon="5.22378">
        <ele>323.86377</ele>
        <time>2018-11-16T09:32:26Z</time>
      </trkpt>
      <trkpt lat="43.78114" lon="5.22364">
        <ele>325.279938</ele>
        <time>2018-11-16T09:32:41Z</time>
      </trkpt>
      <trkpt lat="43.78126" lon="5.22352">
        <ele>326.529633</ele>
        <time>2018-11-16T09:32:56Z</time>
      </trkpt>
      <trkpt lat="43.78138" lon="5.22335">
        <ele>326.999084</ele>
        <time>2018-11-16T09:33:12Z</time>
      </trkpt>
      <trkpt lat="43.78156" lon="5.22321">
        <ele>330.277679</ele>
        <time>2018-11-16T09:33:28Z</time>
      </trkpt>
      <trkpt lat="43.78164" lon="5.22306">
        <ele>332.728241</ele>
        <time>2018-11-16T09:33:45Z</time>
      </trkpt>
      <trkpt lat="43.78171" lon="5.2229">
        <ele>335.424591</ele>
        <time>2018-11-16T09:34:03Z</time>
      </trkpt>
      <trkpt lat="43.78186" lon="5.22278">
        <ele>338.484344</ele>
        <time>2018-11-16T09:34:19Z</time>
      </trkpt>
      <trkpt lat="43.78194" lon="5.22262">
        <ele>340.157288</ele>
        <time>2018-11-16T09:34:34Z</time>
      </trkpt>
      <trkpt lat="43.78212" lon="5.22266">
        <ele>341.761475</ele>
        <time>2018-11-16T09:34:50Z</time>
      </trkpt>
      <trkpt lat="43.78227" lon="5.22272">
        <ele>343.421448</ele>
        <time>2018-11-16T09:35:12Z</time>
      </trkpt>
      <trkpt lat="43.78243" lon="5.22279">
        <ele>345.825073</ele>
        <time>2018-11-16T09:35:27Z</time>
      </trkpt>
      <trkpt lat="43.78259" lon="5.22275">
        <ele>347.494751</ele>
        <time>2018-11-16T09:35:42Z</time>
      </trkpt>
      <trkpt lat="43.78282" lon="5.22273">
        <ele>350.061523</ele>
        <time>2018-11-16T09:35:58Z</time>
      </trkpt>
      <trkpt lat="43.78296" lon="5.22272">
        <ele>351.61792</ele>
        <time>2018-11-16T09:36:14Z</time>
      </trkpt>
      <trkpt lat="43.78307" lon="5.22284">
        <ele>354.13501</ele>
        <time>2018-11-16T09:36:33Z</time>
      </trkpt>
      <trkpt lat="43.78322" lon="5.22296">
        <ele>357.053467</ele>
        <time>2018-11-16T09:36:49Z</time>
      </trkpt>
      <trkpt lat="43.78332" lon="5.22284">
        <ele>357.098145</ele>
        <time>2018-11-16T09:37:08Z</time>
      </trkpt>
      <trkpt lat="43.78347" lon="5.22273">
        <ele>358.547424</ele>
        <time>2018-11-16T09:37:23Z</time>
      </trkpt>
      <trkpt lat="43.78363" lon="5.22272">
        <ele>361.076843</ele>
        <time>2018-11-16T09:37:39Z</time>
      </trkpt>
      <trkpt lat="43.78379" lon="5.22271">
        <ele>363.792358</ele>
        <time>2018-11-16T09:37:55Z</time>
      </trkpt>
      <trkpt lat="43.78393" lon="5.22278">
        <ele>367.30014</ele>
        <time>2018-11-16T09:38:10Z</time>
      </trkpt>
      <trkpt lat="43.78412" lon="5.22281">
        <ele>371.000885</ele>
        <time>2018-11-16T09:38:25Z</time>
      </trkpt>
      <trkpt lat="43.78432" lon="5.22287">
        <ele>373.32843</ele>
        <time>2018-11-16T09:38:41Z</time>
      </trkpt>
      <trkpt lat="43.78448" lon="5.2228">
        <ele>373.11615</ele>
        <time>2018-11-16T09:38:57Z</time>
      </trkpt>
      <trkpt lat="43.78462" lon="5.22276">
        <ele>373.329651</ele>
        <time>2018-11-16T09:39:20Z</time>
      </trkpt>
      <trkpt lat="43.78477" lon="5.22268">
        <ele>373.227539</ele>
        <time>2018-11-16T09:39:35Z</time>
      </trkpt>
      <trkpt lat="43.78494" lon="5.22265">
        <ele>373.832611</ele>
        <time>2018-11-16T09:39:50Z</time>
      </trkpt>
      <trkpt lat="43.78506" lon="5.22272">
        <ele>376.139526</ele>
        <time>2018-11-16T09:40:11Z</time>
      </trkpt>
      <trkpt lat="43.7852" lon="5.22277">
        <ele>379.127899</ele>
        <time>2018-11-16T09:40:58Z</time>
      </trkpt>
      <trkpt lat="43.7853" lon="5.2229">
        <ele>381.320251</ele>
        <time>2018-11-16T09:41:15Z</time>
      </trkpt>
      <trkpt lat="43.78544" lon="5.22298">
        <ele>383.583008</ele>
        <time>2018-11-16T09:41:30Z</time>
      </trkpt>
      <trkpt lat="43.7856" lon="5.22299">
        <ele>385.935699</ele>
        <time>2018-11-16T09:41:46Z</time>
      </trkpt>
      <trkpt lat="43.78575" lon="5.22305">
        <ele>387.674988</ele>
        <time>2018-11-16T09:42:02Z</time>
      </trkpt>
      <trkpt lat="43.78591" lon="5.2231">
        <ele>389.021027</ele>
        <time>2018-11-16T09:42:18Z</time>
      </trkpt>
      <trkpt lat="43.78605" lon="5.22316">
        <ele>389.597839</ele>
        <time>2018-11-16T09:42:34Z</time>
      </trkpt>
      <trkpt lat="43.7862" lon="5.22318">
        <ele>390.542084</ele>
        <time>2018-11-16T09:42:49Z</time>
      </trkpt>
      <trkpt lat="43.78636" lon="5.22322">
        <ele>390.928528</ele>
        <time>2018-11-16T09:43:05Z</time>
      </trkpt>
      <trkpt lat="43.7865" lon="5.22324">
        <ele>391.375977</ele>
        <time>2018-11-16T09:43:23Z</time>
      </trkpt>
      <trkpt lat="43.78664" lon="5.22325">
        <ele>392.204193</ele>
        <time>2018-11-16T09:43:45Z</time>
      </trkpt>
      <trkpt lat="43.78686" lon="5.2234">
        <ele>397.487976</ele>
        <time>2018-11-16T09:44:01Z</time>
      </trkpt>
      <trkpt lat="43.78699" lon="5.22349">
        <ele>403.060608</ele>
        <time>2018-11-16T09:44:17Z</time>
      </trkpt>
      <trkpt lat="43.78713" lon="5.22354">
        <ele>407.486694</ele>
        <time>2018-11-16T09:44:32Z</time>
      </trkpt>
      <trkpt lat="43.78726" lon="5.2236">
        <ele>411.521088</ele>
        <time>2018-11-16T09:44:57Z</time>
      </trkpt>
      <trkpt lat="43.78743" lon="5.22357">
        <ele>414.79184</ele>
        <time>2018-11-16T09:45:12Z</time>
      </trkpt>
      <trkpt lat="43.78757" lon="5.22361">
        <ele>417.983887</ele>
        <time>2018-11-16T09:45:33Z</time>
      </trkpt>
      <trkpt lat="43.7877" lon="5.22354">
        <ele>419.81311</ele>
        <time>2018-11-16T09:45:51Z</time>
      </trkpt>
      <trkpt lat="43.78783" lon="5.22361">
        <ele>422.64386</ele>
        <time>2018-11-16T09:46:29Z</time>
      </trkpt>
      <trkpt lat="43.78797" lon="5.22357">
        <ele>424.987305</ele>
        <time>2018-11-16T09:46:48Z</time>
      </trkpt>
      <trkpt lat="43.78809" lon="5.22366">
        <ele>427.249878</ele>
        <time>2018-11-16T09:47:16Z</time>
      </trkpt>
      <trkpt lat="43.7882" lon="5.22378">
        <ele>428.826447</ele>
        <time>2018-11-16T09:47:35Z</time>
      </trkpt>
      <trkpt lat="43.78834" lon="5.22385">
        <ele>430.635925</ele>
        <time>2018-11-16T09:47:51Z</time>
      </trkpt>
      <trkpt lat="43.78851" lon="5.22395">
        <ele>431.820251</ele>
        <time>2018-11-16T09:48:06Z</time>
      </trkpt>
      <trkpt lat="43.78864" lon="5.22395">
        <ele>433.194244</ele>
        <time>2018-11-16T09:48:25Z</time>
      </trkpt>
      <trkpt lat="43.78877" lon="5.22401">
        <ele>434.155212</ele>
        <time>2018-11-16T09:48:41Z</time>
      </trkpt>
      <trkpt lat="43.78891" lon="5.22405">
        <ele>435.285645</ele>
        <time>2018-11-16T09:48:59Z</time>
      </trkpt>
      <trkpt lat="43.78902" lon="5.22417">
        <ele>435.64975</ele>
        <time>2018-11-16T09:49:19Z</time>
      </trkpt>
      <trkpt lat="43.78914" lon="5.22427">
        <ele>438.004517</ele>
        <time>2018-11-16T09:49:41Z</time>
      </trkpt>
      <trkpt lat="43.78927" lon="5.22433">
        <ele>442.671387</ele>
        <time>2018-11-16T09:50:00Z</time>
      </trkpt>
      <trkpt lat="43.78938" lon="5.22445">
        <ele>447.377655</ele>
        <time>2018-11-16T09:50:28Z</time>
      </trkpt>
      <trkpt lat="43.78943" lon="5.22462">
        <ele>450.157318</ele>
        <time>2018-11-16T09:50:56Z</time>
      </trkpt>
      <trkpt lat="43.78952" lon="5.22476">
        <ele>453.46698</ele>
        <time>2018-11-16T09:51:17Z</time>
      </trkpt>
      <trkpt lat="43.78961" lon="5.22492">
        <ele>456.228699</ele>
        <time>2018-11-16T09:51:37Z</time>
      </trkpt>
      <trkpt lat="43.7897" lon="5.22506">
        <ele>459.757568</ele>
        <time>2018-11-16T09:51:55Z</time>
      </trkpt>
      <trkpt lat="43.7898" lon="5.2252">
        <ele>464.35022</ele>
        <time>2018-11-16T09:52:17Z</time>
      </trkpt>
      <trkpt lat="43.78992" lon="5.22529">
        <ele>467.64917</ele>
        <time>2018-11-16T09:52:34Z</time>
      </trkpt>
      <trkpt lat="43.79001" lon="5.22543">
        <ele>471.196075</ele>
        <time>2018-11-16T09:53:03Z</time>
      </trkpt>
      <trkpt lat="43.79003" lon="5.22562">
        <ele>474.375122</ele>
        <time>2018-11-16T09:54:21Z</time>
      </trkpt>
      <trkpt lat="43.79012" lon="5.22576">
        <ele>479.649139</ele>
        <time>2018-11-16T09:55:11Z</time>
      </trkpt>
      <trkpt lat="43.79019" lon="5.22592">
        <ele>485.137939</ele>
        <time>2018-11-16T09:55:37Z</time>
      </trkpt>
      <trkpt lat="43.79015" lon="5.2261">
        <ele>487.266754</ele>
        <time>2018-11-16T09:56:14Z</time>
      </trkpt>
      <trkpt lat="43.79019" lon="5.22628">
        <ele>492.286194</ele>
        <time>2018-11-16T09:57:10Z</time>
      </trkpt>
      <trkpt lat="43.79009" lon="5.22642">
        <ele>491.23172</ele>
        <time>2018-11-16T09:57:43Z</time>
      </trkpt>
      <trkpt lat="43.79017" lon="5.22658">
        <ele>497.59317</ele>
        <time>2018-11-16T09:58:18Z</time>
      </trkpt>
      <trkpt lat="43.79016" lon="5.22677">
        <ele>498.727051</ele>
        <time>2018-11-16T09:59:31Z</time>
      </trkpt>
      <trkpt lat="43.79029" lon="5.2268">
        <ele>503.729126</ele>
        <time>2018-11-16T09:59:54Z</time>
      </trkpt>
      <trkpt lat="43.79043" lon="5.22684">
        <ele>508.903809</ele>
        <time>2018-11-16T10:00:39Z</time>
      </trkpt>
      <trkpt lat="43.79056" lon="5.22678">
        <ele>513.822327</ele>
        <time>2018-11-16T10:01:09Z</time>
      </trkpt>
      <trkpt lat="43.79068" lon="5.2267">
        <ele>518.355164</ele>
        <time>2018-11-16T10:01:38Z</time>
      </trkpt>
      <trkpt lat="43.79082" lon="5.22665">
        <ele>523.047852</ele>
        <time>2018-11-16T10:02:17Z</time>
      </trkpt>
      <trkpt lat="43.79095" lon="5.22667">
        <ele>530.0224</ele>
        <time>2018-11-16T10:03:07Z</time>
      </trkpt>
      <trkpt lat="43.79108" lon="5.22672">
        <ele>536.91449</ele>
        <time>2018-11-16T10:03:37Z</time>
      </trkpt>
      <trkpt lat="43.7912" lon="5.22683">
        <ele>543.048462</ele>
        <time>2018-11-16T10:04:14Z</time>
      </trkpt>
      <trkpt lat="43.7913" lon="5.22696">
        <ele>548.665222</ele>
        <time>2018-11-16T10:04:39Z</time>
      </trkpt>
      <trkpt lat="43.79141" lon="5.22685">
        <ele>554.083557</ele>
        <time>2018-11-16T10:05:24Z</time>
      </trkpt>
      <trkpt lat="43.79154" lon="5.22686">
        <ele>561.053223</ele>
        <time>2018-11-16T10:06:15Z</time>
      </trkpt>
      <trkpt lat="43.79168" lon="5.22684">
        <ele>567.687927</ele>
        <time>2018-11-16T10:07:00Z</time>
      </trkpt>
      <trkpt lat="43.79181" lon="5.22688">
        <ele>570.87616</ele>
        <time>2018-11-16T10:07:37Z</time>
      </trkpt>
      <trkpt lat="43.7919" lon="5.22675">
        <ele>573.480713</ele>
        <time>2018-11-16T10:09:34Z</time>
      </trkpt>
      <trkpt lat="43.7919" lon="5.22656">
        <ele>571.931763</ele>
        <time>2018-11-16T10:10:35Z</time>
      </trkpt>
      <trkpt lat="43.79201" lon="5.22645">
        <ele>574.228088</ele>
        <time>2018-11-16T10:12:11Z</time>
      </trkpt>
      <trkpt lat="43.79215" lon="5.22648">
        <ele>579.063232</ele>
        <time>2018-11-16T10:13:03Z</time>
      </trkpt>
      <trkpt lat="43.79225" lon="5.22635">
        <ele>581.558838</ele>
        <time>2018-11-16T10:13:43Z</time>
      </trkpt>
      <trkpt lat="43.79236" lon="5.22624">
        <ele>585.188965</ele>
        <time>2018-11-16T10:16:43Z</time>
      </trkpt>
      <trkpt lat="43.79243" lon="5.22608">
        <ele>587.876587</ele>
        <time>2018-11-16T10:17:13Z</time>
      </trkpt>
      <trkpt lat="43.79249" lon="5.2259">
        <ele>590.286865</ele>
        <time>2018-11-16T10:17:30Z</time>
      </trkpt>
      <trkpt lat="43.79253" lon="5.22571">
        <ele>592.254089</ele>
        <time>2018-11-16T10:17:46Z</time>
      </trkpt>
      <trkpt lat="43.79253" lon="5.22552">
        <ele>593.521423</ele>
        <time>2018-11-16T10:18:03Z</time>
      </trkpt>
      <trkpt lat="43.79261" lon="5.22534">
        <ele>597.147156</ele>
        <time>2018-11-16T10:18:19Z</time>
      </trkpt>
      <trkpt lat="43.79272" lon="5.22522">
        <ele>601.49115</ele>
        <time>2018-11-16T10:18:45Z</time>
      </trkpt>
      <trkpt lat="43.79282" lon="5.2251">
        <ele>606.613037</ele>
        <time>2018-11-16T10:19:14Z</time>
      </trkpt>
      <trkpt lat="43.79287" lon="5.22492">
        <ele>609.503723</ele>
        <time>2018-11-16T10:19:41Z</time>
      </trkpt>
      <trkpt lat="43.79276" lon="5.2248">
        <ele>605.577942</ele>
        <time>2018-11-16T10:20:20Z</time>
      </trkpt>
      <trkpt lat="43.79289" lon="5.22478">
        <ele>610.377441</ele>
        <time>2018-11-16T10:21:51Z</time>
      </trkpt>
      <trkpt lat="43.79302" lon="5.22471">
        <ele>614.660767</ele>
        <time>2018-11-16T10:22:15Z</time>
      </trkpt>
      <trkpt lat="43.79314" lon="5.22462">
        <ele>618.683594</ele>
        <time>2018-11-16T10:22:38Z</time>
      </trkpt>
      <trkpt lat="43.79315" lon="5.22481">
        <ele>619.385132</ele>
        <time>2018-11-16T10:23:10Z</time>
      </trkpt>
      <trkpt lat="43.79327" lon="5.22487">
        <ele>624.199036</ele>
        <time>2018-11-16T10:23:35Z</time>
      </trkpt>
      <trkpt lat="43.79341" lon="5.22493">
        <ele>628.113037</ele>
        <time>2018-11-16T10:23:51Z</time>
      </trkpt>
      <trkpt lat="43.79355" lon="5.22493">
        <ele>630.953247</ele>
        <time>2018-11-16T10:24:09Z</time>
      </trkpt>
      <trkpt lat="43.79369" lon="5.22493">
        <ele>633.859253</ele>
        <time>2018-11-16T10:24:27Z</time>
      </trkpt>
      <trkpt lat="43.79383" lon="5.22493">
        <ele>636.692627</ele>
        <time>2018-11-16T10:24:45Z</time>
      </trkpt>
      <trkpt lat="43.79397" lon="5.22495">
        <ele>639.380066</ele>
        <time>2018-11-16T10:25:00Z</time>
      </trkpt>
      <trkpt lat="43.79412" lon="5.22501">
        <ele>641.96875</ele>
        <time>2018-11-16T10:25:16Z</time>
      </trkpt>
      <trkpt lat="43.79424" lon="5.22511">
        <ele>642.051147</ele>
        <time>2018-11-16T10:25:32Z</time>
      </trkpt>
      <trkpt lat="43.79434" lon="5.22524">
        <ele>641.66864</ele>
        <time>2018-11-16T10:25:50Z</time>
      </trkpt>
      <trkpt lat="43.79448" lon="5.22526">
        <ele>643.232239</ele>
        <time>2018-11-16T10:26:06Z</time>
      </trkpt>
      <trkpt lat="43.79461" lon="5.22535">
        <ele>644.137085</ele>
        <time>2018-11-16T10:26:22Z</time>
      </trkpt>
      <trkpt lat="43.79473" lon="5.22545">
        <ele>645.402405</ele>
        <time>2018-11-16T10:26:42Z</time>
      </trkpt>
      <trkpt lat="43.79485" lon="5.22556">
        <ele>646.835999</ele>
        <time>2018-11-16T10:26:58Z</time>
      </trkpt>
      <trkpt lat="43.79499" lon="5.22561">
        <ele>649.313782</ele>
        <time>2018-11-16T10:27:13Z</time>
      </trkpt>
      <trkpt lat="43.79512" lon="5.22568">
        <ele>650.627991</ele>
        <time>2018-11-16T10:27:28Z</time>
      </trkpt>
      <trkpt lat="43.79525" lon="5.22574">
        <ele>651.882385</ele>
        <time>2018-11-16T10:27:44Z</time>
      </trkpt>
      <trkpt lat="43.79538" lon="5.22582">
        <ele>653.17157</ele>
        <time>2018-11-16T10:28:02Z</time>
      </trkpt>
      <trkpt lat="43.79552" lon="5.22577">
        <ele>654.700562</ele>
        <time>2018-11-16T10:28:18Z</time>
      </trkpt>
      <trkpt lat="43.79566" lon="5.22573">
        <ele>656.18866</ele>
        <time>2018-11-16T10:28:35Z</time>
      </trkpt>
      <trkpt lat="43.7958" lon="5.22573">
        <ele>657.649475</ele>
        <time>2018-11-16T10:28:55Z</time>
      </trkpt>
      <trkpt lat="43.79595" lon="5.2257">
        <ele>658.545593</ele>
        <time>2018-11-16T10:29:11Z</time>
      </trkpt>
      <trkpt lat="43.79609" lon="5.22567">
        <ele>659.178467</ele>
        <time>2018-11-16T10:29:29Z</time>
      </trkpt>
      <trkpt lat="43.79623" lon="5.22565">
        <ele>659.797852</ele>
        <time>2018-11-16T10:29:48Z</time>
      </trkpt>
      <trkpt lat="43.79637" lon="5.22561">
        <ele>660.390015</ele>
        <time>2018-11-16T10:30:06Z</time>
      </trkpt>
      <trkpt lat="43.79652" lon="5.22566">
        <ele>661.104797</ele>
        <time>2018-11-16T10:30:22Z</time>
      </trkpt>
      <trkpt lat="43.79666" lon="5.22567">
        <ele>661.783142</ele>
        <time>2018-11-16T10:30:37Z</time>
      </trkpt>
      <trkpt lat="43.79672" lon="5.22586">
        <ele>661.769287</ele>
        <time>2018-11-16T10:30:52Z</time>
      </trkpt>
      <trkpt lat="43.79677" lon="5.22605">
        <ele>661.732971</ele>
        <time>2018-11-16T10:31:19Z</time>
      </trkpt>
      <trkpt lat="43.79678" lon="5.22629">
        <ele>661.981995</ele>
        <time>2018-11-16T10:31:35Z</time>
      </trkpt>
      <trkpt lat="43.79678" lon="5.2265">
        <ele>662.215088</ele>
        <time>2018-11-16T10:31:55Z</time>
      </trkpt>
      <trkpt lat="43.79684" lon="5.22676">
        <ele>662.628357</ele>
        <time>2018-11-16T10:32:10Z</time>
      </trkpt>
      <trkpt lat="43.79684" lon="5.22701">
        <ele>662.715088</ele>
        <time>2018-11-16T10:32:29Z</time>
      </trkpt>
      <trkpt lat="43.7969" lon="5.22727">
        <ele>663.019958</ele>
        <time>2018-11-16T10:32:44Z</time>
      </trkpt>
      <trkpt lat="43.79691" lon="5.22752">
        <ele>663.27356</ele>
        <time>2018-11-16T10:33:00Z</time>
      </trkpt>
      <trkpt lat="43.79695" lon="5.22776">
        <ele>664.805115</ele>
        <time>2018-11-16T10:33:15Z</time>
      </trkpt>
      <trkpt lat="43.79695" lon="5.22803">
        <ele>666.335938</ele>
        <time>2018-11-16T10:33:31Z</time>
      </trkpt>
      <trkpt lat="43.79695" lon="5.2283">
        <ele>667.858887</ele>
        <time>2018-11-16T10:33:46Z</time>
      </trkpt>
      <trkpt lat="43.79699" lon="5.22856">
        <ele>668.523071</ele>
        <time>2018-11-16T10:34:01Z</time>
      </trkpt>
      <trkpt lat="43.79709" lon="5.22883">
        <ele>669.411499</ele>
        <time>2018-11-16T10:34:17Z</time>
      </trkpt>
      <trkpt lat="43.79713" lon="5.22908">
        <ele>670.078064</ele>
        <time>2018-11-16T10:34:32Z</time>
      </trkpt>
      <trkpt lat="43.79719" lon="5.22933">
        <ele>669.966309</ele>
        <time>2018-11-16T10:34:47Z</time>
      </trkpt>
      <trkpt lat="43.79725" lon="5.22962">
        <ele>669.330139</ele>
        <time>2018-11-16T10:35:03Z</time>
      </trkpt>
      <trkpt lat="43.79721" lon="5.22989">
        <ele>668.298584</ele>
        <time>2018-11-16T10:35:19Z</time>
      </trkpt>
      <trkpt lat="43.79715" lon="5.23017">
        <ele>667.375977</ele>
        <time>2018-11-16T10:35:34Z</time>
      </trkpt>
      <trkpt lat="43.79712" lon="5.23046">
        <ele>666.564819</ele>
        <time>2018-11-16T10:35:49Z</time>
      </trkpt>
      <trkpt lat="43.79704" lon="5.23074">
        <ele>665.494263</ele>
        <time>2018-11-16T10:36:05Z</time>
      </trkpt>
      <trkpt lat="43.79701" lon="5.23096">
        <ele>665.375488</ele>
        <time>2018-11-16T10:36:20Z</time>
      </trkpt>
      <trkpt lat="43.79702" lon="5.23122">
        <ele>666.017639</ele>
        <time>2018-11-16T10:36:35Z</time>
      </trkpt>
      <trkpt lat="43.79702" lon="5.23145">
        <ele>666.62384</ele>
        <time>2018-11-16T10:36:50Z</time>
      </trkpt>
      <trkpt lat="43.79701" lon="5.23173">
        <ele>667.325378</ele>
        <time>2018-11-16T10:37:06Z</time>
      </trkpt>
      <trkpt lat="43.79704" lon="5.23197">
        <ele>668.384155</ele>
        <time>2018-11-16T10:37:21Z</time>
      </trkpt>
      <trkpt lat="43.79711" lon="5.23223">
        <ele>669.60022</ele>
        <time>2018-11-16T10:37:37Z</time>
      </trkpt>
      <trkpt lat="43.79711" lon="5.23251">
        <ele>670.522827</ele>
        <time>2018-11-16T10:37:52Z</time>
      </trkpt>
      <trkpt lat="43.79721" lon="5.23278">
        <ele>670.221436</ele>
        <time>2018-11-16T10:38:08Z</time>
      </trkpt>
      <trkpt lat="43.79725" lon="5.2331">
        <ele>669.685791</ele>
        <time>2018-11-16T10:38:24Z</time>
      </trkpt>
      <trkpt lat="43.79729" lon="5.23339">
        <ele>669.130249</ele>
        <time>2018-11-16T10:38:39Z</time>
      </trkpt>
      <trkpt lat="43.79724" lon="5.23361">
        <ele>668.661133</ele>
        <time>2018-11-16T10:38:54Z</time>
      </trkpt>
      <trkpt lat="43.79716" lon="5.23389">
        <ele>667.922119</ele>
        <time>2018-11-16T10:39:10Z</time>
      </trkpt>
      <trkpt lat="43.79707" lon="5.23413">
        <ele>667.085938</ele>
        <time>2018-11-16T10:39:25Z</time>
      </trkpt>
      <trkpt lat="43.79701" lon="5.23442">
        <ele>666.933655</ele>
        <time>2018-11-16T10:39:40Z</time>
      </trkpt>
      <trkpt lat="43.79696" lon="5.23466">
        <ele>666.919312</ele>
        <time>2018-11-16T10:39:56Z</time>
      </trkpt>
      <trkpt lat="43.79686" lon="5.23492">
        <ele>666.682983</ele>
        <time>2018-11-16T10:40:11Z</time>
      </trkpt>
      <trkpt lat="43.79677" lon="5.23513">
        <ele>666.171448</ele>
        <time>2018-11-16T10:40:26Z</time>
      </trkpt>
      <trkpt lat="43.79667" lon="5.23544">
        <ele>665.479675</ele>
        <time>2018-11-16T10:40:42Z</time>
      </trkpt>
      <trkpt lat="43.7966" lon="5.23569">
        <ele>664.279236</ele>
        <time>2018-11-16T10:40:57Z</time>
      </trkpt>
      <trkpt lat="43.79651" lon="5.23593">
        <ele>663.563477</ele>
        <time>2018-11-16T10:41:13Z</time>
      </trkpt>
      <trkpt lat="43.79645" lon="5.23616">
        <ele>663.824951</ele>
        <time>2018-11-16T10:41:28Z</time>
      </trkpt>
      <trkpt lat="43.79639" lon="5.23639">
        <ele>664.325073</ele>
        <time>2018-11-16T10:41:44Z</time>
      </trkpt>
      <trkpt lat="43.79634" lon="5.23664">
        <ele>665.082153</ele>
        <time>2018-11-16T10:41:59Z</time>
      </trkpt>
      <trkpt lat="43.79629" lon="5.2369">
        <ele>664.990723</ele>
        <time>2018-11-16T10:42:14Z</time>
      </trkpt>
      <trkpt lat="43.79625" lon="5.23717">
        <ele>664.805603</ele>
        <time>2018-11-16T10:42:30Z</time>
      </trkpt>
      <trkpt lat="43.79624" lon="5.23747">
        <ele>664.921387</ele>
        <time>2018-11-16T10:42:45Z</time>
      </trkpt>
      <trkpt lat="43.79624" lon="5.23774">
        <ele>664.813232</ele>
        <time>2018-11-16T10:43:00Z</time>
      </trkpt>
      <trkpt lat="43.79626" lon="5.23799">
        <ele>664.765137</ele>
        <time>2018-11-16T10:43:16Z</time>
      </trkpt>
      <trkpt lat="43.79626" lon="5.23828">
        <ele>664.612183</ele>
        <time>2018-11-16T10:43:32Z</time>
      </trkpt>
      <trkpt lat="43.79629" lon="5.23851">
        <ele>665.131714</ele>
        <time>2018-11-16T10:43:47Z</time>
      </trkpt>
      <trkpt lat="43.79628" lon="5.2388">
        <ele>665.771973</ele>
        <time>2018-11-16T10:44:03Z</time>
      </trkpt>
      <trkpt lat="43.79628" lon="5.23906">
        <ele>666.345276</ele>
        <time>2018-11-16T10:44:18Z</time>
      </trkpt>
      <trkpt lat="43.79628" lon="5.23935">
        <ele>666.827271</ele>
        <time>2018-11-16T10:44:34Z</time>
      </trkpt>
      <trkpt lat="43.7963" lon="5.23966">
        <ele>667.344116</ele>
        <time>2018-11-16T10:44:50Z</time>
      </trkpt>
      <trkpt lat="43.79632" lon="5.23991">
        <ele>667.774048</ele>
        <time>2018-11-16T10:45:06Z</time>
      </trkpt>
      <trkpt lat="43.79638" lon="5.24009">
        <ele>668.351624</ele>
        <time>2018-11-16T10:45:28Z</time>
      </trkpt>
      <trkpt lat="43.79638" lon="5.24037">
        <ele>668.588745</ele>
        <time>2018-11-16T10:45:44Z</time>
      </trkpt>
      <trkpt lat="43.79637" lon="5.24062">
        <ele>668.764099</ele>
        <time>2018-11-16T10:45:59Z</time>
      </trkpt>
      <trkpt lat="43.79638" lon="5.24087">
        <ele>669.124023</ele>
        <time>2018-11-16T10:46:15Z</time>
      </trkpt>
      <trkpt lat="43.79641" lon="5.24114">
        <ele>670.31134</ele>
        <time>2018-11-16T10:46:31Z</time>
      </trkpt>
      <trkpt lat="43.79645" lon="5.24139">
        <ele>671.402161</ele>
        <time>2018-11-16T10:46:46Z</time>
      </trkpt>
      <trkpt lat="43.79648" lon="5.24164">
        <ele>672.443665</ele>
        <time>2018-11-16T10:47:01Z</time>
      </trkpt>
      <trkpt lat="43.79652" lon="5.24192">
        <ele>672.541748</ele>
        <time>2018-11-16T10:47:17Z</time>
      </trkpt>
      <trkpt lat="43.79655" lon="5.24219">
        <ele>672.534363</ele>
        <time>2018-11-16T10:47:33Z</time>
      </trkpt>
      <trkpt lat="43.79659" lon="5.24244">
        <ele>672.660889</ele>
        <time>2018-11-16T10:47:49Z</time>
      </trkpt>
      <trkpt lat="43.79664" lon="5.24266">
        <ele>672.875488</ele>
        <time>2018-11-16T10:48:04Z</time>
      </trkpt>
      <trkpt lat="43.79669" lon="5.24291">
        <ele>673.029358</ele>
        <time>2018-11-16T10:48:19Z</time>
      </trkpt>
      <trkpt lat="43.79673" lon="5.24319">
        <ele>673.121521</ele>
        <time>2018-11-16T10:48:35Z</time>
      </trkpt>
      <trkpt lat="43.79677" lon="5.24345">
        <ele>673.374329</ele>
        <time>2018-11-16T10:48:50Z</time>
      </trkpt>
      <trkpt lat="43.79681" lon="5.24373">
        <ele>673.816284</ele>
        <time>2018-11-16T10:49:05Z</time>
      </trkpt>
      <trkpt lat="43.79685" lon="5.24403">
        <ele>674.287842</ele>
        <time>2018-11-16T10:49:21Z</time>
      </trkpt>
      <trkpt lat="43.79694" lon="5.24429">
        <ele>674.699158</ele>
        <time>2018-11-16T10:49:37Z</time>
      </trkpt>
      <trkpt lat="43.79701" lon="5.24455">
        <ele>675.018372</ele>
        <time>2018-11-16T10:49:53Z</time>
      </trkpt>
      <trkpt lat="43.79706" lon="5.24485">
        <ele>675.320435</ele>
        <time>2018-11-16T10:50:09Z</time>
      </trkpt>
      <trkpt lat="43.79713" lon="5.24511">
        <ele>675.699707</ele>
        <time>2018-11-16T10:50:25Z</time>
      </trkpt>
      <trkpt lat="43.79722" lon="5.24538">
        <ele>676.12262</ele>
        <time>2018-11-16T10:50:40Z</time>
      </trkpt>
      <trkpt lat="43.79727" lon="5.24565">
        <ele>676.528015</ele>
        <time>2018-11-16T10:50:56Z</time>
      </trkpt>
      <trkpt lat="43.79732" lon="5.24592">
        <ele>676.754517</ele>
        <time>2018-11-16T10:51:11Z</time>
      </trkpt>
      <trkpt lat="43.79735" lon="5.24618">
        <ele>676.686523</ele>
        <time>2018-11-16T10:51:26Z</time>
      </trkpt>
      <trkpt lat="43.79742" lon="5.24646">
        <ele>677.071838</ele>
        <time>2018-11-16T10:51:42Z</time>
      </trkpt>
      <trkpt lat="43.79745" lon="5.24674">
        <ele>676.891174</ele>
        <time>2018-11-16T10:51:57Z</time>
      </trkpt>
      <trkpt lat="43.7975" lon="5.24704">
        <ele>675.763489</ele>
        <time>2018-11-16T10:52:13Z</time>
      </trkpt>
      <trkpt lat="43.79755" lon="5.24728">
        <ele>674.341919</ele>
        <time>2018-11-16T10:52:29Z</time>
      </trkpt>
      <trkpt lat="43.79766" lon="5.24757">
        <ele>673.154724</ele>
        <time>2018-11-16T10:52:45Z</time>
      </trkpt>
      <trkpt lat="43.79769" lon="5.24785">
        <ele>672.306458</ele>
        <time>2018-11-16T10:53:01Z</time>
      </trkpt>
      <trkpt lat="43.7978" lon="5.24812">
        <ele>671.749268</ele>
        <time>2018-11-16T10:53:17Z</time>
      </trkpt>
      <trkpt lat="43.79795" lon="5.2484">
        <ele>671.35907</ele>
        <time>2018-11-16T10:53:33Z</time>
      </trkpt>
      <trkpt lat="43.79801" lon="5.24867">
        <ele>670.874451</ele>
        <time>2018-11-16T10:53:49Z</time>
      </trkpt>
      <trkpt lat="43.79807" lon="5.24891">
        <ele>670.750366</ele>
        <time>2018-11-16T10:54:04Z</time>
      </trkpt>
      <trkpt lat="43.79816" lon="5.24913">
        <ele>671.574097</ele>
        <time>2018-11-16T10:54:20Z</time>
      </trkpt>
      <trkpt lat="43.79823" lon="5.24938">
        <ele>672.791016</ele>
        <time>2018-11-16T10:54:36Z</time>
      </trkpt>
      <trkpt lat="43.79834" lon="5.24966">
        <ele>675.179321</ele>
        <time>2018-11-16T10:54:52Z</time>
      </trkpt>
      <trkpt lat="43.79844" lon="5.24988">
        <ele>676.072083</ele>
        <time>2018-11-16T10:55:07Z</time>
      </trkpt>
      <trkpt lat="43.7985" lon="5.25013">
        <ele>676.374023</ele>
        <time>2018-11-16T10:55:22Z</time>
      </trkpt>
      <trkpt lat="43.79857" lon="5.25039">
        <ele>676.321655</ele>
        <time>2018-11-16T10:55:38Z</time>
      </trkpt>
      <trkpt lat="43.79867" lon="5.25063">
        <ele>676.616455</ele>
        <time>2018-11-16T10:55:53Z</time>
      </trkpt>
      <trkpt lat="43.79874" lon="5.25087">
        <ele>676.785034</ele>
        <time>2018-11-16T10:56:08Z</time>
      </trkpt>
      <trkpt lat="43.79886" lon="5.25112">
        <ele>676.701477</ele>
        <time>2018-11-16T10:56:24Z</time>
      </trkpt>
      <trkpt lat="43.79894" lon="5.25138">
        <ele>676.566406</ele>
        <time>2018-11-16T10:56:39Z</time>
      </trkpt>
      <trkpt lat="43.799" lon="5.25164">
        <ele>676.680786</ele>
        <time>2018-11-16T10:56:55Z</time>
      </trkpt>
      <trkpt lat="43.79907" lon="5.25187">
        <ele>676.563232</ele>
        <time>2018-11-16T10:57:10Z</time>
      </trkpt>
      <trkpt lat="43.79913" lon="5.25211">
        <ele>676.61554</ele>
        <time>2018-11-16T10:57:25Z</time>
      </trkpt>
      <trkpt lat="43.79921" lon="5.25236">
        <ele>676.670288</ele>
        <time>2018-11-16T10:57:41Z</time>
      </trkpt>
      <trkpt lat="43.79927" lon="5.25261">
        <ele>676.44104</ele>
        <time>2018-11-16T10:57:57Z</time>
      </trkpt>
      <trkpt lat="43.79932" lon="5.25293">
        <ele>676.597717</ele>
        <time>2018-11-16T10:58:13Z</time>
      </trkpt>
      <trkpt lat="43.7994" lon="5.25319">
        <ele>677.186829</ele>
        <time>2018-11-16T10:58:29Z</time>
      </trkpt>
      <trkpt lat="43.79943" lon="5.25343">
        <ele>677.052856</ele>
        <time>2018-11-16T10:58:44Z</time>
      </trkpt>
      <trkpt lat="43.79949" lon="5.25368">
        <ele>676.382202</ele>
        <time>2018-11-16T10:58:59Z</time>
      </trkpt>
      <trkpt lat="43.79955" lon="5.25398">
        <ele>675.876953</ele>
        <time>2018-11-16T10:59:15Z</time>
      </trkpt>
      <trkpt lat="43.79958" lon="5.25429">
        <ele>675.553833</ele>
        <time>2018-11-16T10:59:31Z</time>
      </trkpt>
      <trkpt lat="43.79963" lon="5.25455">
        <ele>676.554932</ele>
        <time>2018-11-16T10:59:46Z</time>
      </trkpt>
      <trkpt lat="43.79966" lon="5.25478">
        <ele>677.287476</ele>
        <time>2018-11-16T11:00:01Z</time>
      </trkpt>
      <trkpt lat="43.79969" lon="5.25506">
        <ele>678.137451</ele>
        <time>2018-11-16T11:00:17Z</time>
      </trkpt>
      <trkpt lat="43.79973" lon="5.25534">
        <ele>679.03009</ele>
        <time>2018-11-16T11:00:33Z</time>
      </trkpt>
      <trkpt lat="43.79977" lon="5.25561">
        <ele>680.031006</ele>
        <time>2018-11-16T11:00:49Z</time>
      </trkpt>
      <trkpt lat="43.7998" lon="5.25588">
        <ele>680.688477</ele>
        <time>2018-11-16T11:01:04Z</time>
      </trkpt>
      <trkpt lat="43.79989" lon="5.25617">
        <ele>682.09613</ele>
        <time>2018-11-16T11:01:20Z</time>
      </trkpt>
      <trkpt lat="43.79992" lon="5.25644">
        <ele>682.376953</ele>
        <time>2018-11-16T11:01:35Z</time>
      </trkpt>
      <trkpt lat="43.79995" lon="5.25673">
        <ele>682.608948</ele>
        <time>2018-11-16T11:01:51Z</time>
      </trkpt>
      <trkpt lat="43.79998" lon="5.25704">
        <ele>683.274475</ele>
        <time>2018-11-16T11:02:07Z</time>
      </trkpt>
      <trkpt lat="43.8" lon="5.25728">
        <ele>683.74292</ele>
        <time>2018-11-16T11:02:22Z</time>
      </trkpt>
      <trkpt lat="43.79999" lon="5.25753">
        <ele>684.073425</ele>
        <time>2018-11-16T11:02:37Z</time>
      </trkpt>
      <trkpt lat="43.79994" lon="5.25779">
        <ele>685.020142</ele>
        <time>2018-11-16T11:02:53Z</time>
      </trkpt>
      <trkpt lat="43.79984" lon="5.25798">
        <ele>685.378723</ele>
        <time>2018-11-16T11:03:08Z</time>
      </trkpt>
      <trkpt lat="43.79966" lon="5.25817">
        <ele>685.181641</ele>
        <time>2018-11-16T11:03:24Z</time>
      </trkpt>
      <trkpt lat="43.79951" lon="5.2584">
        <ele>685.256714</ele>
        <time>2018-11-16T11:03:39Z</time>
      </trkpt>
      <trkpt lat="43.7993" lon="5.25852">
        <ele>684.289246</ele>
        <time>2018-11-16T11:03:55Z</time>
      </trkpt>
      <trkpt lat="43.79914" lon="5.25859">
        <ele>683.394592</ele>
        <time>2018-11-16T11:04:11Z</time>
      </trkpt>
      <trkpt lat="43.79896" lon="5.25873">
        <ele>682.436768</ele>
        <time>2018-11-16T11:04:26Z</time>
      </trkpt>
      <trkpt lat="43.79883" lon="5.25889">
        <ele>682.021729</ele>
        <time>2018-11-16T11:04:42Z</time>
      </trkpt>
      <trkpt lat="43.79879" lon="5.25913">
        <ele>682.566895</ele>
        <time>2018-11-16T11:04:58Z</time>
      </trkpt>
      <trkpt lat="43.79877" lon="5.25939">
        <ele>682.38385</ele>
        <time>2018-11-16T11:05:13Z</time>
      </trkpt>
      <trkpt lat="43.79883" lon="5.25967">
        <ele>682.625549</ele>
        <time>2018-11-16T11:05:29Z</time>
      </trkpt>
      <trkpt lat="43.79891" lon="5.25993">
        <ele>683.197021</ele>
        <time>2018-11-16T11:05:45Z</time>
      </trkpt>
      <trkpt lat="43.79898" lon="5.26015">
        <ele>684.316711</ele>
        <time>2018-11-16T11:06:00Z</time>
      </trkpt>
      <trkpt lat="43.79906" lon="5.26041">
        <ele>686.060303</ele>
        <time>2018-11-16T11:06:16Z</time>
      </trkpt>
      <trkpt lat="43.79912" lon="5.26066">
        <ele>688.078857</ele>
        <time>2018-11-16T11:06:31Z</time>
      </trkpt>
      <trkpt lat="43.79917" lon="5.26089">
        <ele>690.222534</ele>
        <time>2018-11-16T11:06:46Z</time>
      </trkpt>
      <trkpt lat="43.79923" lon="5.26113">
        <ele>691.925232</ele>
        <time>2018-11-16T11:07:02Z</time>
      </trkpt>
      <trkpt lat="43.79929" lon="5.26136">
        <ele>693.545776</ele>
        <time>2018-11-16T11:07:17Z</time>
      </trkpt>
      <trkpt lat="43.79936" lon="5.26162">
        <ele>695.35791</ele>
        <time>2018-11-16T11:07:33Z</time>
      </trkpt>
      <trkpt lat="43.79943" lon="5.26186">
        <ele>697.102478</ele>
        <time>2018-11-16T11:07:48Z</time>
      </trkpt>
      <trkpt lat="43.7995" lon="5.26209">
        <ele>698.818237</ele>
        <time>2018-11-16T11:08:03Z</time>
      </trkpt>
      <trkpt lat="43.79956" lon="5.26234">
        <ele>700.551392</ele>
        <time>2018-11-16T11:08:18Z</time>
      </trkpt>
      <trkpt lat="43.7996" lon="5.26254">
        <ele>701.758362</ele>
        <time>2018-11-16T11:08:41Z</time>
      </trkpt>
      <trkpt lat="43.79969" lon="5.2628">
        <ele>703.374817</ele>
        <time>2018-11-16T11:08:57Z</time>
      </trkpt>
      <trkpt lat="43.79978" lon="5.26303">
        <ele>704.723694</ele>
        <time>2018-11-16T11:09:13Z</time>
      </trkpt>
      <trkpt lat="43.79988" lon="5.26329">
        <ele>706.125793</ele>
        <time>2018-11-16T11:09:29Z</time>
      </trkpt>
      <trkpt lat="43.79997" lon="5.2635">
        <ele>707.598083</ele>
        <time>2018-11-16T11:09:44Z</time>
      </trkpt>
      <trkpt lat="43.80001" lon="5.26375">
        <ele>709.012451</ele>
        <time>2018-11-16T11:10:00Z</time>
      </trkpt>
      <trkpt lat="43.80008" lon="5.264">
        <ele>710.530701</ele>
        <time>2018-11-16T11:10:15Z</time>
      </trkpt>
      <trkpt lat="43.80015" lon="5.26427">
        <ele>712.014771</ele>
        <time>2018-11-16T11:10:31Z</time>
      </trkpt>
      <trkpt lat="43.80021" lon="5.2645">
        <ele>713.356201</ele>
        <time>2018-11-16T11:10:46Z</time>
      </trkpt>
      <trkpt lat="43.80029" lon="5.26475">
        <ele>714.828552</ele>
        <time>2018-11-16T11:11:02Z</time>
      </trkpt>
      <trkpt lat="43.80035" lon="5.26499">
        <ele>716.210999</ele>
        <time>2018-11-16T11:11:17Z</time>
      </trkpt>
      <trkpt lat="43.80038" lon="5.26525">
        <ele>717.123352</ele>
        <time>2018-11-16T11:11:33Z</time>
      </trkpt>
      <trkpt lat="43.80044" lon="5.26549">
        <ele>718.026855</ele>
        <time>2018-11-16T11:11:48Z</time>
      </trkpt>
      <trkpt lat="43.80052" lon="5.26575">
        <ele>719.008667</ele>
        <time>2018-11-16T11:12:03Z</time>
      </trkpt>
      <trkpt lat="43.80057" lon="5.26601">
        <ele>719.654541</ele>
        <time>2018-11-16T11:12:19Z</time>
      </trkpt>
      <trkpt lat="43.80063" lon="5.26627">
        <ele>720.169189</ele>
        <time>2018-11-16T11:12:35Z</time>
      </trkpt>
      <trkpt lat="43.80076" lon="5.26657">
        <ele>720.773254</ele>
        <time>2018-11-16T11:12:51Z</time>
      </trkpt>
      <trkpt lat="43.80087" lon="5.2668">
        <ele>720.489319</ele>
        <time>2018-11-16T11:13:07Z</time>
      </trkpt>
      <trkpt lat="43.80098" lon="5.26702">
        <ele>719.620911</ele>
        <time>2018-11-16T11:13:22Z</time>
      </trkpt>
      <trkpt lat="43.80098" lon="5.26727">
        <ele>718.782593</ele>
        <time>2018-11-16T11:13:38Z</time>
      </trkpt>
      <trkpt lat="43.80075" lon="5.26734">
        <ele>718.65564</ele>
        <time>2018-11-16T11:13:54Z</time>
      </trkpt>
      <trkpt lat="43.80052" lon="5.26734">
        <ele>718.813477</ele>
        <time>2018-11-16T11:14:10Z</time>
      </trkpt>
      <trkpt lat="43.80031" lon="5.26736">
        <ele>718.932312</ele>
        <time>2018-11-16T11:14:25Z</time>
      </trkpt>
      <trkpt lat="43.80007" lon="5.26735">
        <ele>719.122314</ele>
        <time>2018-11-16T11:14:41Z</time>
      </trkpt>
      <trkpt lat="43.79991" lon="5.26732">
        <ele>719.075928</ele>
        <time>2018-11-16T11:14:57Z</time>
      </trkpt>
      <trkpt lat="43.7997" lon="5.26728">
        <ele>718.802673</ele>
        <time>2018-11-16T11:15:12Z</time>
      </trkpt>
      <trkpt lat="43.79949" lon="5.26725">
        <ele>718.500488</ele>
        <time>2018-11-16T11:15:27Z</time>
      </trkpt>
      <trkpt lat="43.79928" lon="5.26725">
        <ele>718.180603</ele>
        <time>2018-11-16T11:15:43Z</time>
      </trkpt>
      <trkpt lat="43.79907" lon="5.26724">
        <ele>717.410828</ele>
        <time>2018-11-16T11:15:59Z</time>
      </trkpt>
      <trkpt lat="43.79887" lon="5.26718">
        <ele>716.104919</ele>
        <time>2018-11-16T11:16:15Z</time>
      </trkpt>
      <trkpt lat="43.79867" lon="5.26711">
        <ele>714.730652</ele>
        <time>2018-11-16T11:16:30Z</time>
      </trkpt>
      <trkpt lat="43.79847" lon="5.26703">
        <ele>713.322876</ele>
        <time>2018-11-16T11:16:46Z</time>
      </trkpt>
      <trkpt lat="43.79829" lon="5.267">
        <ele>712.17749</ele>
        <time>2018-11-16T11:17:01Z</time>
      </trkpt>
      <trkpt lat="43.79809" lon="5.26695">
        <ele>711.173035</ele>
        <time>2018-11-16T11:17:17Z</time>
      </trkpt>
      <trkpt lat="43.79789" lon="5.26685">
        <ele>710.262573</ele>
        <time>2018-11-16T11:17:33Z</time>
      </trkpt>
      <trkpt lat="43.79767" lon="5.26678">
        <ele>709.445068</ele>
        <time>2018-11-16T11:17:49Z</time>
      </trkpt>
      <trkpt lat="43.79746" lon="5.26673">
        <ele>708.558228</ele>
        <time>2018-11-16T11:18:05Z</time>
      </trkpt>
      <trkpt lat="43.79731" lon="5.26664">
        <ele>707.818054</ele>
        <time>2018-11-16T11:18:20Z</time>
      </trkpt>
      <trkpt lat="43.79706" lon="5.26659">
        <ele>706.409302</ele>
        <time>2018-11-16T11:18:36Z</time>
      </trkpt>
      <trkpt lat="43.79686" lon="5.26664">
        <ele>705.2146</ele>
        <time>2018-11-16T11:18:51Z</time>
      </trkpt>
      <trkpt lat="43.7967" lon="5.26669">
        <ele>703.990356</ele>
        <time>2018-11-16T11:19:07Z</time>
      </trkpt>
      <trkpt lat="43.79652" lon="5.2667">
        <ele>702.713867</ele>
        <time>2018-11-16T11:19:22Z</time>
      </trkpt>
      <trkpt lat="43.7963" lon="5.26673">
        <ele>700.804199</ele>
        <time>2018-11-16T11:19:37Z</time>
      </trkpt>
      <trkpt lat="43.79609" lon="5.26673">
        <ele>699.371643</ele>
        <time>2018-11-16T11:19:52Z</time>
      </trkpt>
      <trkpt lat="43.79589" lon="5.26669">
        <ele>698.917053</ele>
        <time>2018-11-16T11:20:07Z</time>
      </trkpt>
      <trkpt lat="43.79566" lon="5.26673">
        <ele>697.089294</ele>
        <time>2018-11-16T11:20:23Z</time>
      </trkpt>
      <trkpt lat="43.79551" lon="5.26671">
        <ele>696.865112</ele>
        <time>2018-11-16T11:20:38Z</time>
      </trkpt>
      <trkpt lat="43.79534" lon="5.26678">
        <ele>694.939819</ele>
        <time>2018-11-16T11:20:53Z</time>
      </trkpt>
      <trkpt lat="43.79521" lon="5.26678">
        <ele>694.481812</ele>
        <time>2018-11-16T11:21:41Z</time>
      </trkpt>
      <trkpt lat="43.79506" lon="5.26675">
        <ele>694.603821</ele>
        <time>2018-11-16T11:21:58Z</time>
      </trkpt>
      <trkpt lat="43.79486" lon="5.26673">
        <ele>694.150696</ele>
        <time>2018-11-16T11:22:14Z</time>
      </trkpt>
      <trkpt lat="43.79463" lon="5.2667">
        <ele>693.430969</ele>
        <time>2018-11-16T11:22:30Z</time>
      </trkpt>
      <trkpt lat="43.7944" lon="5.26663">
        <ele>692.411804</ele>
        <time>2018-11-16T11:22:46Z</time>
      </trkpt>
      <trkpt lat="43.79419" lon="5.26656">
        <ele>691.012451</ele>
        <time>2018-11-16T11:23:02Z</time>
      </trkpt>
      <trkpt lat="43.79407" lon="5.26645">
        <ele>688.756165</ele>
        <time>2018-11-16T11:23:25Z</time>
      </trkpt>
      <trkpt lat="43.79389" lon="5.2663">
        <ele>684.454224</ele>
        <time>2018-11-16T11:23:41Z</time>
      </trkpt>
      <trkpt lat="43.79372" lon="5.26642">
        <ele>681.044739</ele>
        <time>2018-11-16T11:23:57Z</time>
      </trkpt>
      <trkpt lat="43.79353" lon="5.26647">
        <ele>677.224182</ele>
        <time>2018-11-16T11:24:12Z</time>
      </trkpt>
      <trkpt lat="43.79355" lon="5.2667">
        <ele>678.637329</ele>
        <time>2018-11-16T11:24:28Z</time>
      </trkpt>
      <trkpt lat="43.79347" lon="5.26691">
        <ele>678.749084</ele>
        <time>2018-11-16T11:24:43Z</time>
      </trkpt>
      <trkpt lat="43.7933" lon="5.267">
        <ele>674.941284</ele>
        <time>2018-11-16T11:24:58Z</time>
      </trkpt>
      <trkpt lat="43.79318" lon="5.26717">
        <ele>668.459717</ele>
        <time>2018-11-16T11:25:14Z</time>
      </trkpt>
      <trkpt lat="43.79321" lon="5.26736">
        <ele>673.002869</ele>
        <time>2018-11-16T11:25:34Z</time>
      </trkpt>
      <trkpt lat="43.79316" lon="5.26754">
        <ele>671.213074</ele>
        <time>2018-11-16T11:25:50Z</time>
      </trkpt>
      <trkpt lat="43.79305" lon="5.26765">
        <ele>663.479004</ele>
        <time>2018-11-16T11:26:06Z</time>
      </trkpt>
      <trkpt lat="43.79314" lon="5.26788">
        <ele>669.773315</ele>
        <time>2018-11-16T11:26:22Z</time>
      </trkpt>
      <trkpt lat="43.79324" lon="5.2681">
        <ele>675.602539</ele>
        <time>2018-11-16T11:26:37Z</time>
      </trkpt>
      <trkpt lat="43.79329" lon="5.26836">
        <ele>677.563354</ele>
        <time>2018-11-16T11:26:52Z</time>
      </trkpt>
      <trkpt lat="43.79329" lon="5.26859">
        <ele>675.828003</ele>
        <time>2018-11-16T11:27:08Z</time>
      </trkpt>
      <trkpt lat="43.79317" lon="5.26879">
        <ele>668.58905</ele>
        <time>2018-11-16T11:27:24Z</time>
      </trkpt>
      <trkpt lat="43.79316" lon="5.26899">
        <ele>666.565369</ele>
        <time>2018-11-16T11:27:40Z</time>
      </trkpt>
      <trkpt lat="43.79315" lon="5.26918">
        <ele>664.935974</ele>
        <time>2018-11-16T11:28:01Z</time>
      </trkpt>
      <trkpt lat="43.79313" lon="5.26937">
        <ele>662.695374</ele>
        <time>2018-11-16T11:28:39Z</time>
      </trkpt>
      <trkpt lat="43.79315" lon="5.26957">
        <ele>662.605835</ele>
        <time>2018-11-16T11:28:58Z</time>
      </trkpt>
      <trkpt lat="43.79316" lon="5.26976">
        <ele>661.983826</ele>
        <time>2018-11-16T11:29:14Z</time>
      </trkpt>
      <trkpt lat="43.79318" lon="5.26994">
        <ele>662.082458</ele>
        <time>2018-11-16T11:29:33Z</time>
      </trkpt>
      <trkpt lat="43.79318" lon="5.27013">
        <ele>661.776489</ele>
        <time>2018-11-16T11:30:11Z</time>
      </trkpt>
      <trkpt lat="43.79317" lon="5.27035">
        <ele>661.333313</ele>
        <time>2018-11-16T11:30:27Z</time>
      </trkpt>
      <trkpt lat="43.79322" lon="5.27053">
        <ele>663.869751</ele>
        <time>2018-11-16T11:30:42Z</time>
      </trkpt>
      <trkpt lat="43.79322" lon="5.27074">
        <ele>664.038696</ele>
        <time>2018-11-16T11:30:57Z</time>
      </trkpt>
      <trkpt lat="43.79324" lon="5.27093">
        <ele>663.41394</ele>
        <time>2018-11-16T11:31:23Z</time>
      </trkpt>
      <trkpt lat="43.79328" lon="5.27111">
        <ele>662.897583</ele>
        <time>2018-11-16T11:31:40Z</time>
      </trkpt>
      <trkpt lat="43.79324" lon="5.2713">
        <ele>658.855408</ele>
        <time>2018-11-16T11:32:00Z</time>
      </trkpt>
      <trkpt lat="43.7932" lon="5.2715">
        <ele>654.408203</ele>
        <time>2018-11-16T11:32:15Z</time>
      </trkpt>
      <trkpt lat="43.79312" lon="5.27166">
        <ele>649.100586</ele>
        <time>2018-11-16T11:32:31Z</time>
      </trkpt>
      <trkpt lat="43.79314" lon="5.27185">
        <ele>647.958496</ele>
        <time>2018-11-16T11:32:48Z</time>
      </trkpt>
      <trkpt lat="43.79316" lon="5.27207">
        <ele>646.465698</ele>
        <time>2018-11-16T11:33:03Z</time>
      </trkpt>
      <trkpt lat="43.79324" lon="5.27222">
        <ele>647.384766</ele>
        <time>2018-11-16T11:33:33Z</time>
      </trkpt>
      <trkpt lat="43.79327" lon="5.27241">
        <ele>646.048035</ele>
        <time>2018-11-16T11:33:50Z</time>
      </trkpt>
      <trkpt lat="43.79322" lon="5.27265">
        <ele>642.902466</ele>
        <time>2018-11-16T11:34:05Z</time>
      </trkpt>
      <trkpt lat="43.79315" lon="5.27289">
        <ele>639.702637</ele>
        <time>2018-11-16T11:34:21Z</time>
      </trkpt>
      <trkpt lat="43.79327" lon="5.27313">
        <ele>641.498413</ele>
        <time>2018-11-16T11:34:36Z</time>
      </trkpt>
      <trkpt lat="43.79324" lon="5.27338">
        <ele>639.204102</ele>
        <time>2018-11-16T11:34:52Z</time>
      </trkpt>
      <trkpt lat="43.79314" lon="5.27358">
        <ele>634.976685</ele>
        <time>2018-11-16T11:35:07Z</time>
      </trkpt>
      <trkpt lat="43.79309" lon="5.27378">
        <ele>632.109253</ele>
        <time>2018-11-16T11:35:22Z</time>
      </trkpt>
      <trkpt lat="43.79305" lon="5.27401">
        <ele>629.52832</ele>
        <time>2018-11-16T11:35:38Z</time>
      </trkpt>
      <trkpt lat="43.793" lon="5.27425">
        <ele>627.141907</ele>
        <time>2018-11-16T11:35:53Z</time>
      </trkpt>
      <trkpt lat="43.79297" lon="5.27448">
        <ele>625.830322</ele>
        <time>2018-11-16T11:36:08Z</time>
      </trkpt>
      <trkpt lat="43.79286" lon="5.27469">
        <ele>624.332397</ele>
        <time>2018-11-16T11:36:24Z</time>
      </trkpt>
      <trkpt lat="43.7928" lon="5.27487">
        <ele>623.616394</ele>
        <time>2018-11-16T11:36:39Z</time>
      </trkpt>
      <trkpt lat="43.7927" lon="5.27504">
        <ele>623.355103</ele>
        <time>2018-11-16T11:36:54Z</time>
      </trkpt>
      <trkpt lat="43.79256" lon="5.27523">
        <ele>624.223877</ele>
        <time>2018-11-16T11:37:10Z</time>
      </trkpt>
      <trkpt lat="43.79243" lon="5.27542">
        <ele>622.96106</ele>
        <time>2018-11-16T11:37:26Z</time>
      </trkpt>
      <trkpt lat="43.79237" lon="5.27559">
        <ele>621.940308</ele>
        <time>2018-11-16T11:37:44Z</time>
      </trkpt>
      <trkpt lat="43.79226" lon="5.27578">
        <ele>619.61676</ele>
        <time>2018-11-16T11:37:59Z</time>
      </trkpt>
      <trkpt lat="43.79212" lon="5.27594">
        <ele>614.859863</ele>
        <time>2018-11-16T11:38:14Z</time>
      </trkpt>
      <trkpt lat="43.79201" lon="5.27603">
        <ele>610.48877</ele>
        <time>2018-11-16T11:38:35Z</time>
      </trkpt>
      <trkpt lat="43.79194" lon="5.2762">
        <ele>607.589172</ele>
        <time>2018-11-16T11:38:53Z</time>
      </trkpt>
      <trkpt lat="43.7918" lon="5.27619">
        <ele>603.007141</ele>
        <time>2018-11-16T11:39:09Z</time>
      </trkpt>
      <trkpt lat="43.79167" lon="5.27611">
        <ele>598.968262</ele>
        <time>2018-11-16T11:39:32Z</time>
      </trkpt>
      <trkpt lat="43.79153" lon="5.27616">
        <ele>594.621765</ele>
        <time>2018-11-16T11:39:50Z</time>
      </trkpt>
      <trkpt lat="43.7914" lon="5.27611">
        <ele>590.612061</ele>
        <time>2018-11-16T11:40:12Z</time>
      </trkpt>
      <trkpt lat="43.79134" lon="5.27628">
        <ele>588.598999</ele>
        <time>2018-11-16T11:40:36Z</time>
      </trkpt>
      <trkpt lat="43.79121" lon="5.27635">
        <ele>584.935791</ele>
        <time>2018-11-16T11:40:53Z</time>
      </trkpt>
      <trkpt lat="43.79106" lon="5.27629">
        <ele>580.307007</ele>
        <time>2018-11-16T11:41:08Z</time>
      </trkpt>
      <trkpt lat="43.7909" lon="5.27636">
        <ele>575.925964</ele>
        <time>2018-11-16T11:41:24Z</time>
      </trkpt>
      <trkpt lat="43.79074" lon="5.27636">
        <ele>573.407288</ele>
        <time>2018-11-16T11:41:40Z</time>
      </trkpt>
      <trkpt lat="43.79059" lon="5.27633">
        <ele>572.09198</ele>
        <time>2018-11-16T11:41:56Z</time>
      </trkpt>
      <trkpt lat="43.79042" lon="5.27637">
        <ele>571.031616</ele>
        <time>2018-11-16T11:42:11Z</time>
      </trkpt>
      <trkpt lat="43.79029" lon="5.2764">
        <ele>570.279663</ele>
        <time>2018-11-16T11:42:26Z</time>
      </trkpt>
      <trkpt lat="43.79011" lon="5.27646">
        <ele>569.278137</ele>
        <time>2018-11-16T11:42:41Z</time>
      </trkpt>
      <trkpt lat="43.78997" lon="5.27636">
        <ele>568.261475</ele>
        <time>2018-11-16T11:42:57Z</time>
      </trkpt>
      <trkpt lat="43.78988" lon="5.27621">
        <ele>568.578003</ele>
        <time>2018-11-16T11:44:54Z</time>
      </trkpt>
      <trkpt lat="43.78975" lon="5.27605">
        <ele>569.966431</ele>
        <time>2018-11-16T11:45:09Z</time>
      </trkpt>
      <trkpt lat="43.78966" lon="5.2759">
        <ele>571.234009</ele>
        <time>2018-11-16T11:45:26Z</time>
      </trkpt>
      <trkpt lat="43.78953" lon="5.27579">
        <ele>572.89679</ele>
        <time>2018-11-16T11:45:42Z</time>
      </trkpt>
      <trkpt lat="43.78944" lon="5.27565">
        <ele>572.573242</ele>
        <time>2018-11-16T11:45:57Z</time>
      </trkpt>
      <trkpt lat="43.78936" lon="5.27544">
        <ele>571.074158</ele>
        <time>2018-11-16T11:46:13Z</time>
      </trkpt>
      <trkpt lat="43.78926" lon="5.27528">
        <ele>571.269165</ele>
        <time>2018-11-16T11:46:29Z</time>
      </trkpt>
      <trkpt lat="43.78917" lon="5.27506">
        <ele>570.581177</ele>
        <time>2018-11-16T11:46:45Z</time>
      </trkpt>
      <trkpt lat="43.78906" lon="5.27492">
        <ele>568.899109</ele>
        <time>2018-11-16T11:47:00Z</time>
      </trkpt>
      <trkpt lat="43.78889" lon="5.27487">
        <ele>568.522034</ele>
        <time>2018-11-16T11:47:16Z</time>
      </trkpt>
      <trkpt lat="43.78869" lon="5.27483">
        <ele>568.580078</ele>
        <time>2018-11-16T11:47:32Z</time>
      </trkpt>
      <trkpt lat="43.78849" lon="5.27488">
        <ele>569.783264</ele>
        <time>2018-11-16T11:47:47Z</time>
      </trkpt>
      <trkpt lat="43.7883" lon="5.27484">
        <ele>569.532593</ele>
        <time>2018-11-16T11:48:03Z</time>
      </trkpt>
      <trkpt lat="43.78814" lon="5.27476">
        <ele>568.373169</ele>
        <time>2018-11-16T11:48:18Z</time>
      </trkpt>
      <trkpt lat="43.788" lon="5.27472">
        <ele>568.099731</ele>
        <time>2018-11-16T11:48:33Z</time>
      </trkpt>
      <trkpt lat="43.78784" lon="5.27464">
        <ele>568.138123</ele>
        <time>2018-11-16T11:48:49Z</time>
      </trkpt>
      <trkpt lat="43.78769" lon="5.27456">
        <ele>568.768311</ele>
        <time>2018-11-16T11:49:04Z</time>
      </trkpt>
      <trkpt lat="43.78754" lon="5.27442">
        <ele>570.544067</ele>
        <time>2018-11-16T11:49:20Z</time>
      </trkpt>
      <trkpt lat="43.78742" lon="5.27433">
        <ele>571.215881</ele>
        <time>2018-11-16T11:49:36Z</time>
      </trkpt>
      <trkpt lat="43.78728" lon="5.27421">
        <ele>571.96283</ele>
        <time>2018-11-16T11:49:51Z</time>
      </trkpt>
      <trkpt lat="43.78712" lon="5.27415">
        <ele>572.263062</ele>
        <time>2018-11-16T11:50:06Z</time>
      </trkpt>
      <trkpt lat="43.78701" lon="5.27404">
        <ele>573.970093</ele>
        <time>2018-11-16T11:50:21Z</time>
      </trkpt>
      <trkpt lat="43.78688" lon="5.27395">
        <ele>575.807312</ele>
        <time>2018-11-16T11:50:47Z</time>
      </trkpt>
      <trkpt lat="43.78673" lon="5.27388">
        <ele>577.707153</ele>
        <time>2018-11-16T11:51:02Z</time>
      </trkpt>
      <trkpt lat="43.78652" lon="5.27379">
        <ele>579.844421</ele>
        <time>2018-11-16T11:51:18Z</time>
      </trkpt>
      <trkpt lat="43.78639" lon="5.27372">
        <ele>581.220337</ele>
        <time>2018-11-16T11:51:34Z</time>
      </trkpt>
      <trkpt lat="43.78626" lon="5.27382">
        <ele>578.661865</ele>
        <time>2018-11-16T11:51:50Z</time>
      </trkpt>
      <trkpt lat="43.78612" lon="5.27385">
        <ele>577.617981</ele>
        <time>2018-11-16T11:52:14Z</time>
      </trkpt>
      <trkpt lat="43.78598" lon="5.27394">
        <ele>575.445862</ele>
        <time>2018-11-16T11:52:30Z</time>
      </trkpt>
      <trkpt lat="43.78581" lon="5.27396">
        <ele>574.514221</ele>
        <time>2018-11-16T11:52:45Z</time>
      </trkpt>
      <trkpt lat="43.78566" lon="5.27388">
        <ele>574.618042</ele>
        <time>2018-11-16T11:53:01Z</time>
      </trkpt>
      <trkpt lat="43.78551" lon="5.27379">
        <ele>574.34668</ele>
        <time>2018-11-16T11:53:16Z</time>
      </trkpt>
      <trkpt lat="43.7854" lon="5.27365">
        <ele>574.840942</ele>
        <time>2018-11-16T11:53:31Z</time>
      </trkpt>
      <trkpt lat="43.78531" lon="5.27344">
        <ele>575.92041</ele>
        <time>2018-11-16T11:53:47Z</time>
      </trkpt>
      <trkpt lat="43.78523" lon="5.27324">
        <ele>575.868408</ele>
        <time>2018-11-16T11:54:02Z</time>
      </trkpt>
      <trkpt lat="43.78511" lon="5.27303">
        <ele>574.179443</ele>
        <time>2018-11-16T11:54:18Z</time>
      </trkpt>
      <trkpt lat="43.78499" lon="5.27287">
        <ele>571.286316</ele>
        <time>2018-11-16T11:54:34Z</time>
      </trkpt>
      <trkpt lat="43.78489" lon="5.27266">
        <ele>569.412476</ele>
        <time>2018-11-16T11:54:50Z</time>
      </trkpt>
      <trkpt lat="43.78474" lon="5.27257">
        <ele>565.778992</ele>
        <time>2018-11-16T11:55:06Z</time>
      </trkpt>
      <trkpt lat="43.78461" lon="5.27244">
        <ele>561.765869</ele>
        <time>2018-11-16T11:55:22Z</time>
      </trkpt>
      <trkpt lat="43.78445" lon="5.27248">
        <ele>558.267395</ele>
        <time>2018-11-16T11:55:37Z</time>
      </trkpt>
      <trkpt lat="43.7843" lon="5.27246">
        <ele>553.998169</ele>
        <time>2018-11-16T11:55:52Z</time>
      </trkpt>
      <trkpt lat="43.78413" lon="5.27242">
        <ele>549.704895</ele>
        <time>2018-11-16T11:56:07Z</time>
      </trkpt>
      <trkpt lat="43.784" lon="5.27242">
        <ele>548.276733</ele>
        <time>2018-11-16T11:56:23Z</time>
      </trkpt>
      <trkpt lat="43.78385" lon="5.27236">
        <ele>546.326172</ele>
        <time>2018-11-16T11:56:39Z</time>
      </trkpt>
      <trkpt lat="43.78387" lon="5.27215">
        <ele>544.434875</ele>
        <time>2018-11-16T11:56:55Z</time>
      </trkpt>
      <trkpt lat="43.78393" lon="5.27196">
        <ele>543.087036</ele>
        <time>2018-11-16T11:57:10Z</time>
      </trkpt>
      <trkpt lat="43.784" lon="5.2718">
        <ele>541.802795</ele>
        <time>2018-11-16T11:57:27Z</time>
      </trkpt>
      <trkpt lat="43.78407" lon="5.27162">
        <ele>539.589661</ele>
        <time>2018-11-16T11:57:42Z</time>
      </trkpt>
      <trkpt lat="43.78413" lon="5.27145">
        <ele>536.296753</ele>
        <time>2018-11-16T11:58:08Z</time>
      </trkpt>
      <trkpt lat="43.78403" lon="5.27133">
        <ele>533.676636</ele>
        <time>2018-11-16T11:58:30Z</time>
      </trkpt>
      <trkpt lat="43.78409" lon="5.27115">
        <ele>530.090332</ele>
        <time>2018-11-16T11:58:51Z</time>
      </trkpt>
      <trkpt lat="43.78409" lon="5.27096">
        <ele>526.177673</ele>
        <time>2018-11-16T11:59:08Z</time>
      </trkpt>
      <trkpt lat="43.78401" lon="5.2708">
        <ele>523.105164</ele>
        <time>2018-11-16T11:59:29Z</time>
      </trkpt>
      <trkpt lat="43.78405" lon="5.27061">
        <ele>518.83136</ele>
        <time>2018-11-16T11:59:46Z</time>
      </trkpt>
      <trkpt lat="43.78405" lon="5.27041">
        <ele>514.677002</ele>
        <time>2018-11-16T12:00:04Z</time>
      </trkpt>
      <trkpt lat="43.78408" lon="5.27023">
        <ele>510.314728</ele>
        <time>2018-11-16T12:00:46Z</time>
      </trkpt>
      <trkpt lat="43.78409" lon="5.27003">
        <ele>505.936096</ele>
        <time>2018-11-16T12:01:11Z</time>
      </trkpt>
      <trkpt lat="43.78406" lon="5.26984">
        <ele>502.467926</ele>
        <time>2018-11-16T12:01:35Z</time>
      </trkpt>
      <trkpt lat="43.78408" lon="5.26965">
        <ele>498.331238</ele>
        <time>2018-11-16T12:01:59Z</time>
      </trkpt>
      <trkpt lat="43.78411" lon="5.26946">
        <ele>494.085938</ele>
        <time>2018-11-16T12:02:15Z</time>
      </trkpt>
      <trkpt lat="43.78412" lon="5.26927">
        <ele>490.063049</ele>
        <time>2018-11-16T12:02:31Z</time>
      </trkpt>
      <trkpt lat="43.78409" lon="5.26909">
        <ele>487.653748</ele>
        <time>2018-11-16T12:02:52Z</time>
      </trkpt>
      <trkpt lat="43.78407" lon="5.26889">
        <ele>485.717041</ele>
        <time>2018-11-16T12:03:07Z</time>
      </trkpt>
      <trkpt lat="43.7841" lon="5.26867">
        <ele>482.301392</ele>
        <time>2018-11-16T12:03:23Z</time>
      </trkpt>
      <trkpt lat="43.78407" lon="5.26846">
        <ele>480.107361</ele>
        <time>2018-11-16T12:03:39Z</time>
      </trkpt>
      <trkpt lat="43.78403" lon="5.26817">
        <ele>476.919067</ele>
        <time>2018-11-16T12:03:55Z</time>
      </trkpt>
      <trkpt lat="43.78398" lon="5.26794">
        <ele>474.284332</ele>
        <time>2018-11-16T12:04:11Z</time>
      </trkpt>
      <trkpt lat="43.78404" lon="5.26766">
        <ele>469.966858</ele>
        <time>2018-11-16T12:04:26Z</time>
      </trkpt>
      <trkpt lat="43.784" lon="5.26748">
        <ele>467.532471</ele>
        <time>2018-11-16T12:04:44Z</time>
      </trkpt>
      <trkpt lat="43.78388" lon="5.2674">
        <ele>465.979462</ele>
        <time>2018-11-16T12:05:15Z</time>
      </trkpt>
      <trkpt lat="43.78381" lon="5.26723">
        <ele>462.723602</ele>
        <time>2018-11-16T12:05:35Z</time>
      </trkpt>
      <trkpt lat="43.78369" lon="5.26711">
        <ele>459.039917</ele>
        <time>2018-11-16T12:05:50Z</time>
      </trkpt>
      <trkpt lat="43.7836" lon="5.26696">
        <ele>454.437256</ele>
        <time>2018-11-16T12:06:07Z</time>
      </trkpt>
      <trkpt lat="43.78355" lon="5.26675">
        <ele>448.474976</ele>
        <time>2018-11-16T12:06:22Z</time>
      </trkpt>
      <trkpt lat="43.78359" lon="5.26651">
        <ele>446.283508</ele>
        <time>2018-11-16T12:06:38Z</time>
      </trkpt>
      <trkpt lat="43.78348" lon="5.26631">
        <ele>441.910858</ele>
        <time>2018-11-16T12:06:54Z</time>
      </trkpt>
      <trkpt lat="43.78338" lon="5.26612">
        <ele>437.160797</ele>
        <time>2018-11-16T12:07:10Z</time>
      </trkpt>
      <trkpt lat="43.78318" lon="5.26616">
        <ele>435.075928</ele>
        <time>2018-11-16T12:07:25Z</time>
      </trkpt>
      <trkpt lat="43.78309" lon="5.26602">
        <ele>431.861877</ele>
        <time>2018-11-16T12:07:40Z</time>
      </trkpt>
      <trkpt lat="43.78292" lon="5.2659">
        <ele>427.134247</ele>
        <time>2018-11-16T12:07:56Z</time>
      </trkpt>
      <trkpt lat="43.78282" lon="5.26576">
        <ele>424.327454</ele>
        <time>2018-11-16T12:08:12Z</time>
      </trkpt>
      <trkpt lat="43.7827" lon="5.26564">
        <ele>422.271759</ele>
        <time>2018-11-16T12:08:27Z</time>
      </trkpt>
      <trkpt lat="43.7826" lon="5.26539">
        <ele>419.775726</ele>
        <time>2018-11-16T12:08:43Z</time>
      </trkpt>
      <trkpt lat="43.78248" lon="5.26527">
        <ele>415.87677</ele>
        <time>2018-11-16T12:08:59Z</time>
      </trkpt>
      <trkpt lat="43.78242" lon="5.2651">
        <ele>414.351318</ele>
        <time>2018-11-16T12:09:16Z</time>
      </trkpt>
      <trkpt lat="43.78222" lon="5.26499">
        <ele>410.794891</ele>
        <time>2018-11-16T12:09:31Z</time>
      </trkpt>
      <trkpt lat="43.7821" lon="5.2648">
        <ele>410.851257</ele>
        <time>2018-11-16T12:09:46Z</time>
      </trkpt>
      <trkpt lat="43.782" lon="5.26457">
        <ele>410.128052</ele>
        <time>2018-11-16T12:10:02Z</time>
      </trkpt>
      <trkpt lat="43.78179" lon="5.26447">
        <ele>402.84436</ele>
        <time>2018-11-16T12:10:17Z</time>
      </trkpt>
      <trkpt lat="43.7816" lon="5.26445">
        <ele>398.315765</ele>
        <time>2018-11-16T12:10:33Z</time>
      </trkpt>
      <trkpt lat="43.78144" lon="5.26435">
        <ele>397.248291</ele>
        <time>2018-11-16T12:10:49Z</time>
      </trkpt>
      <trkpt lat="43.78132" lon="5.26414">
        <ele>393.538177</ele>
        <time>2018-11-16T12:11:04Z</time>
      </trkpt>
      <trkpt lat="43.78121" lon="5.26393">
        <ele>392.305237</ele>
        <time>2018-11-16T12:11:20Z</time>
      </trkpt>
      <trkpt lat="43.78112" lon="5.26376">
        <ele>389.913391</ele>
        <time>2018-11-16T12:11:35Z</time>
      </trkpt>
      <trkpt lat="43.781" lon="5.26356">
        <ele>385.168213</ele>
        <time>2018-11-16T12:11:50Z</time>
      </trkpt>
      <trkpt lat="43.78089" lon="5.26336">
        <ele>378.819458</ele>
        <time>2018-11-16T12:12:06Z</time>
      </trkpt>
      <trkpt lat="43.78073" lon="5.2632">
        <ele>376.789581</ele>
        <time>2018-11-16T12:12:22Z</time>
      </trkpt>
      <trkpt lat="43.7806" lon="5.26303">
        <ele>376.412415</ele>
        <time>2018-11-16T12:12:38Z</time>
      </trkpt>
      <trkpt lat="43.78048" lon="5.26287">
        <ele>374.614746</ele>
        <time>2018-11-16T12:12:54Z</time>
      </trkpt>
      <trkpt lat="43.78039" lon="5.26265">
        <ele>371.436584</ele>
        <time>2018-11-16T12:13:09Z</time>
      </trkpt>
      <trkpt lat="43.78023" lon="5.26251">
        <ele>366.266144</ele>
        <time>2018-11-16T12:13:24Z</time>
      </trkpt>
      <trkpt lat="43.78012" lon="5.26226">
        <ele>365.419495</ele>
        <time>2018-11-16T12:13:40Z</time>
      </trkpt>
      <trkpt lat="43.77994" lon="5.26208">
        <ele>363.077576</ele>
        <time>2018-11-16T12:13:56Z</time>
      </trkpt>
      <trkpt lat="43.77974" lon="5.26199">
        <ele>360.050415</ele>
        <time>2018-11-16T12:14:12Z</time>
      </trkpt>
      <trkpt lat="43.77952" lon="5.26205">
        <ele>356.552002</ele>
        <time>2018-11-16T12:14:27Z</time>
      </trkpt>
      <trkpt lat="43.77932" lon="5.26195">
        <ele>351.834015</ele>
        <time>2018-11-16T12:14:43Z</time>
      </trkpt>
      <trkpt lat="43.77915" lon="5.26202">
        <ele>350.072998</ele>
        <time>2018-11-16T12:14:58Z</time>
      </trkpt>
      <trkpt lat="43.779" lon="5.26194">
        <ele>347.392334</ele>
        <time>2018-11-16T12:15:14Z</time>
      </trkpt>
      <trkpt lat="43.77891" lon="5.26172">
        <ele>341.21106</ele>
        <time>2018-11-16T12:15:29Z</time>
      </trkpt>
      <trkpt lat="43.77875" lon="5.26155">
        <ele>336.607544</ele>
        <time>2018-11-16T12:15:45Z</time>
      </trkpt>
      <trkpt lat="43.77865" lon="5.26137">
        <ele>332.662445</ele>
        <time>2018-11-16T12:16:01Z</time>
      </trkpt>
      <trkpt lat="43.77858" lon="5.26119">
        <ele>328.441162</ele>
        <time>2018-11-16T12:16:27Z</time>
      </trkpt>
      <trkpt lat="43.77853" lon="5.26092">
        <ele>322.483337</ele>
        <time>2018-11-16T12:16:43Z</time>
      </trkpt>
      <trkpt lat="43.77853" lon="5.26062">
        <ele>318.771454</ele>
        <time>2018-11-16T12:16:58Z</time>
      </trkpt>
      <trkpt lat="43.77853" lon="5.26031">
        <ele>315.71991</ele>
        <time>2018-11-16T12:17:14Z</time>
      </trkpt>
      <trkpt lat="43.77846" lon="5.26006">
        <ele>311.019287</ele>
        <time>2018-11-16T12:17:29Z</time>
      </trkpt>
      <trkpt lat="43.77836" lon="5.25984">
        <ele>307.453186</ele>
        <time>2018-11-16T12:17:45Z</time>
      </trkpt>
      <trkpt lat="43.7783" lon="5.25957">
        <ele>306.6203</ele>
        <time>2018-11-16T12:18:00Z</time>
      </trkpt>
      <trkpt lat="43.77821" lon="5.25931">
        <ele>305.639862</ele>
        <time>2018-11-16T12:18:16Z</time>
      </trkpt>
      <trkpt lat="43.7781" lon="5.25905">
        <ele>304.509827</ele>
        <time>2018-11-16T12:18:31Z</time>
      </trkpt>
      <trkpt lat="43.77798" lon="5.25883">
        <ele>303.058289</ele>
        <time>2018-11-16T12:18:46Z</time>
      </trkpt>
      <trkpt lat="43.77784" lon="5.25864">
        <ele>299.256592</ele>
        <time>2018-11-16T12:19:01Z</time>
      </trkpt>
      <trkpt lat="43.77769" lon="5.25848">
        <ele>293.234741</ele>
        <time>2018-11-16T12:19:17Z</time>
      </trkpt>
      <trkpt lat="43.7775" lon="5.25833">
        <ele>284.048737</ele>
        <time>2018-11-16T12:19:33Z</time>
      </trkpt>
      <trkpt lat="43.77739" lon="5.25811">
        <ele>284.556458</ele>
        <time>2018-11-16T12:19:49Z</time>
      </trkpt>
      <trkpt lat="43.77729" lon="5.25785">
        <ele>284.680054</ele>
        <time>2018-11-16T12:20:05Z</time>
      </trkpt>
      <trkpt lat="43.77723" lon="5.25757">
        <ele>284.610901</ele>
        <time>2018-11-16T12:20:20Z</time>
      </trkpt>
      <trkpt lat="43.77712" lon="5.25736">
        <ele>283.481323</ele>
        <time>2018-11-16T12:20:36Z</time>
      </trkpt>
      <trkpt lat="43.77703" lon="5.2571">
        <ele>282.654633</ele>
        <time>2018-11-16T12:20:51Z</time>
      </trkpt>
      <trkpt lat="43.77692" lon="5.25684">
        <ele>280.862518</ele>
        <time>2018-11-16T12:21:07Z</time>
      </trkpt>
      <trkpt lat="43.77684" lon="5.25669">
        <ele>279.093872</ele>
        <time>2018-11-16T12:21:23Z</time>
      </trkpt>
      <trkpt lat="43.77684" lon="5.25649">
        <ele>279.160248</ele>
        <time>2018-11-16T12:21:38Z</time>
      </trkpt>
      <trkpt lat="43.77675" lon="5.25627">
        <ele>276.938446</ele>
        <time>2018-11-16T12:21:54Z</time>
      </trkpt>
      <trkpt lat="43.77666" lon="5.25604">
        <ele>274.335602</ele>
        <time>2018-11-16T12:22:09Z</time>
      </trkpt>
      <trkpt lat="43.77655" lon="5.25581">
        <ele>275.859314</ele>
        <time>2018-11-16T12:22:24Z</time>
      </trkpt>
      <trkpt lat="43.77645" lon="5.25562">
        <ele>276.572052</ele>
        <time>2018-11-16T12:22:39Z</time>
      </trkpt>
      <trkpt lat="43.77631" lon="5.25567">
        <ele>278.235565</ele>
        <time>2018-11-16T12:23:01Z</time>
      </trkpt>
      <trkpt lat="43.7761" lon="5.2555">
        <ele>278.110504</ele>
        <time>2018-11-16T12:23:17Z</time>
      </trkpt>
      <trkpt lat="43.77597" lon="5.25527">
        <ele>274.825256</ele>
        <time>2018-11-16T12:23:33Z</time>
      </trkpt>
      <trkpt lat="43.77584" lon="5.25506">
        <ele>270.266296</ele>
        <time>2018-11-16T12:23:49Z</time>
      </trkpt>
      <trkpt lat="43.77568" lon="5.25484">
        <ele>273.305603</ele>
        <time>2018-11-16T12:24:05Z</time>
      </trkpt>
      <trkpt lat="43.77554" lon="5.25463">
        <ele>275.319885</ele>
        <time>2018-11-16T12:24:20Z</time>
      </trkpt>
      <trkpt lat="43.77539" lon="5.2544">
        <ele>274.813599</ele>
        <time>2018-11-16T12:24:36Z</time>
      </trkpt>
      <trkpt lat="43.7753" lon="5.25414">
        <ele>271.991455</ele>
        <time>2018-11-16T12:24:52Z</time>
      </trkpt>
      <trkpt lat="43.77525" lon="5.25387">
        <ele>271.510712</ele>
        <time>2018-11-16T12:25:07Z</time>
      </trkpt>
      <trkpt lat="43.77522" lon="5.2536">
        <ele>270.654999</ele>
        <time>2018-11-16T12:25:23Z</time>
      </trkpt>
      <trkpt lat="43.77519" lon="5.25333">
        <ele>269.327972</ele>
        <time>2018-11-16T12:25:38Z</time>
      </trkpt>
      <trkpt lat="43.77514" lon="5.25304">
        <ele>269.042297</ele>
        <time>2018-11-16T12:25:53Z</time>
      </trkpt>
      <trkpt lat="43.77511" lon="5.2528">
        <ele>268.692749</ele>
        <time>2018-11-16T12:26:08Z</time>
      </trkpt>
      <trkpt lat="43.77495" lon="5.25256">
        <ele>264.974854</ele>
        <time>2018-11-16T12:26:24Z</time>
      </trkpt>
      <trkpt lat="43.77477" lon="5.25239">
        <ele>267.79129</ele>
        <time>2018-11-16T12:26:40Z</time>
      </trkpt>
      <trkpt lat="43.77459" lon="5.25217">
        <ele>273.473633</ele>
        <time>2018-11-16T12:26:56Z</time>
      </trkpt>
      <trkpt lat="43.7744" lon="5.25204">
        <ele>275.435913</ele>
        <time>2018-11-16T12:27:12Z</time>
      </trkpt>
      <trkpt lat="43.77421" lon="5.25197">
        <ele>275.479858</ele>
        <time>2018-11-16T12:27:27Z</time>
      </trkpt>
      <trkpt lat="43.77399" lon="5.25208">
        <ele>272.496338</ele>
        <time>2018-11-16T12:27:43Z</time>
      </trkpt>
      <trkpt lat="43.77377" lon="5.25207">
        <ele>272.52002</ele>
        <time>2018-11-16T12:27:59Z</time>
      </trkpt>
      <trkpt lat="43.77358" lon="5.25205">
        <ele>273.057922</ele>
        <time>2018-11-16T12:28:15Z</time>
      </trkpt>
      <trkpt lat="43.77336" lon="5.25202">
        <ele>273.54657</ele>
        <time>2018-11-16T12:28:31Z</time>
      </trkpt>
      <trkpt lat="43.77319" lon="5.25221">
        <ele>267.645905</ele>
        <time>2018-11-16T12:28:46Z</time>
      </trkpt>
      <trkpt lat="43.77299" lon="5.25224">
        <ele>265.362061</ele>
        <time>2018-11-16T12:29:01Z</time>
      </trkpt>
      <trkpt lat="43.77279" lon="5.25216">
        <ele>264.5672</ele>
        <time>2018-11-16T12:29:17Z</time>
      </trkpt>
      <trkpt lat="43.77261" lon="5.25205">
        <ele>263.568542</ele>
        <time>2018-11-16T12:29:33Z</time>
      </trkpt>
      <trkpt lat="43.77241" lon="5.25198">
        <ele>261.909393</ele>
        <time>2018-11-16T12:29:49Z</time>
      </trkpt>
      <trkpt lat="43.77223" lon="5.25193">
        <ele>260.580658</ele>
        <time>2018-11-16T12:30:04Z</time>
      </trkpt>
      <trkpt lat="43.77205" lon="5.25185">
        <ele>258.273346</ele>
        <time>2018-11-16T12:30:20Z</time>
      </trkpt>
      <trkpt lat="43.77191" lon="5.25172">
        <ele>254.741089</ele>
        <time>2018-11-16T12:30:35Z</time>
      </trkpt>
      <trkpt lat="43.77165" lon="5.25157">
        <ele>252.018616</ele>
        <time>2018-11-16T12:30:51Z</time>
      </trkpt>
      <trkpt lat="43.77144" lon="5.2516">
        <ele>248.284363</ele>
        <time>2018-11-16T12:31:07Z</time>
      </trkpt>
      <trkpt lat="43.77132" lon="5.25148">
        <ele>249.247284</ele>
        <time>2018-11-16T12:32:02Z</time>
      </trkpt>
      <trkpt lat="43.77118" lon="5.25146">
        <ele>247.739014</ele>
        <time>2018-11-16T12:32:29Z</time>
      </trkpt>
      <trkpt lat="43.77107" lon="5.25129">
        <ele>250.026917</ele>
        <time>2018-11-16T12:32:45Z</time>
      </trkpt>
      <trkpt lat="43.77094" lon="5.25109">
        <ele>252.813629</ele>
        <time>2018-11-16T12:33:00Z</time>
      </trkpt>
      <trkpt lat="43.77078" lon="5.25097">
        <ele>253.79068</ele>
        <time>2018-11-16T12:33:16Z</time>
      </trkpt>
      <trkpt lat="43.77063" lon="5.25094">
        <ele>254.458374</ele>
        <time>2018-11-16T12:33:31Z</time>
      </trkpt>
      <trkpt lat="43.77049" lon="5.25089">
        <ele>255.528381</ele>
        <time>2018-11-16T12:33:49Z</time>
      </trkpt>
      <trkpt lat="43.77032" lon="5.25085">
        <ele>256.634033</ele>
        <time>2018-11-16T12:34:04Z</time>
      </trkpt>
      <trkpt lat="43.77019" lon="5.25089">
        <ele>255.342438</ele>
        <time>2018-11-16T12:34:20Z</time>
      </trkpt>
      <trkpt lat="43.77005" lon="5.25096">
        <ele>253.26683</ele>
        <time>2018-11-16T12:34:36Z</time>
      </trkpt>
      <trkpt lat="43.76989" lon="5.25103">
        <ele>250.897781</ele>
        <time>2018-11-16T12:34:52Z</time>
      </trkpt>
      <trkpt lat="43.76975" lon="5.25104">
        <ele>250.35817</ele>
        <time>2018-11-16T12:35:07Z</time>
      </trkpt>
      <trkpt lat="43.76961" lon="5.25097">
        <ele>251.781052</ele>
        <time>2018-11-16T12:35:23Z</time>
      </trkpt>
      <trkpt lat="43.76947" lon="5.25097">
        <ele>251.332916</ele>
        <time>2018-11-16T12:35:38Z</time>
      </trkpt>
      <trkpt lat="43.76933" lon="5.25093">
        <ele>251.861542</ele>
        <time>2018-11-16T12:35:54Z</time>
      </trkpt>
      <trkpt lat="43.76921" lon="5.25083">
        <ele>253.199539</ele>
        <time>2018-11-16T12:36:09Z</time>
      </trkpt>
      <trkpt lat="43.76908" lon="5.25076">
        <ele>253.265808</ele>
        <time>2018-11-16T12:36:27Z</time>
      </trkpt>
      <trkpt lat="43.76895" lon="5.25055">
        <ele>254.122314</ele>
        <time>2018-11-16T12:36:43Z</time>
      </trkpt>
      <trkpt lat="43.7689" lon="5.25029">
        <ele>255.271545</ele>
        <time>2018-11-16T12:36:59Z</time>
      </trkpt>
      <trkpt lat="43.76892" lon="5.25">
        <ele>256.682068</ele>
        <time>2018-11-16T12:37:19Z</time>
      </trkpt>
      <trkpt lat="43.76897" lon="5.24978">
        <ele>257.22467</ele>
        <time>2018-11-16T12:37:35Z</time>
      </trkpt>
      <trkpt lat="43.76903" lon="5.24953">
        <ele>257.873108</ele>
        <time>2018-11-16T12:37:50Z</time>
      </trkpt>
      <trkpt lat="43.76912" lon="5.24928">
        <ele>258.622803</ele>
        <time>2018-11-16T12:38:05Z</time>
      </trkpt>
      <trkpt lat="43.76919" lon="5.24902">
        <ele>258.932343</ele>
        <time>2018-11-16T12:38:21Z</time>
      </trkpt>
      <trkpt lat="43.76925" lon="5.24875">
        <ele>258.929382</ele>
        <time>2018-11-16T12:38:36Z</time>
      </trkpt>
      <trkpt lat="43.76932" lon="5.24847">
        <ele>258.925049</ele>
        <time>2018-11-16T12:38:52Z</time>
      </trkpt>
      <trkpt lat="43.76939" lon="5.24826">
        <ele>258.656281</ele>
        <time>2018-11-16T12:39:07Z</time>
      </trkpt>
      <trkpt lat="43.7695" lon="5.24801">
        <ele>257.97641</ele>
        <time>2018-11-16T12:39:23Z</time>
      </trkpt>
      <trkpt lat="43.76959" lon="5.24779">
        <ele>257.443573</ele>
        <time>2018-11-16T12:39:38Z</time>
      </trkpt>
      <trkpt lat="43.76973" lon="5.24756">
        <ele>257.298767</ele>
        <time>2018-11-16T12:39:54Z</time>
      </trkpt>
      <trkpt lat="43.76983" lon="5.24735">
        <ele>257.232666</ele>
        <time>2018-11-16T12:40:09Z</time>
      </trkpt>
      <trkpt lat="43.76992" lon="5.24714">
        <ele>257.372925</ele>
        <time>2018-11-16T12:40:24Z</time>
      </trkpt>
      <trkpt lat="43.77" lon="5.24695">
        <ele>257.725098</ele>
        <time>2018-11-16T12:40:39Z</time>
      </trkpt>
      <trkpt lat="43.7699" lon="5.2468">
        <ele>256.236359</ele>
        <time>2018-11-16T12:41:02Z</time>
      </trkpt>
      <trkpt lat="43.76975" lon="5.24658">
        <ele>253.925812</ele>
        <time>2018-11-16T12:41:18Z</time>
      </trkpt>
      <trkpt lat="43.76961" lon="5.24642">
        <ele>252.038391</ele>
        <time>2018-11-16T12:41:33Z</time>
      </trkpt>
      <trkpt lat="43.76944" lon="5.24631">
        <ele>249.861389</ele>
        <time>2018-11-16T12:41:48Z</time>
      </trkpt>
      <trkpt lat="43.7693" lon="5.24613">
        <ele>247.919861</ele>
        <time>2018-11-16T12:42:03Z</time>
      </trkpt>
      <trkpt lat="43.76915" lon="5.24598">
        <ele>246.054764</ele>
        <time>2018-11-16T12:42:19Z</time>
      </trkpt>
      <trkpt lat="43.76898" lon="5.24582">
        <ele>244.664993</ele>
        <time>2018-11-16T12:42:34Z</time>
      </trkpt>
      <trkpt lat="43.76878" lon="5.24568">
        <ele>243.337555</ele>
        <time>2018-11-16T12:42:50Z</time>
      </trkpt>
      <trkpt lat="43.76865" lon="5.24549">
        <ele>242.460632</ele>
        <time>2018-11-16T12:43:06Z</time>
      </trkpt>
      <trkpt lat="43.76853" lon="5.24526">
        <ele>241.562073</ele>
        <time>2018-11-16T12:43:22Z</time>
      </trkpt>
      <trkpt lat="43.76842" lon="5.24502">
        <ele>240.735352</ele>
        <time>2018-11-16T12:43:37Z</time>
      </trkpt>
      <trkpt lat="43.76836" lon="5.24476">
        <ele>239.137665</ele>
        <time>2018-11-16T12:43:53Z</time>
      </trkpt>
      <trkpt lat="43.76841" lon="5.24452">
        <ele>238.4711</ele>
        <time>2018-11-16T12:44:09Z</time>
      </trkpt>
      <trkpt lat="43.7685" lon="5.24423">
        <ele>238.285431</ele>
        <time>2018-11-16T12:44:25Z</time>
      </trkpt>
      <trkpt lat="43.76842" lon="5.24399">
        <ele>236.576477</ele>
        <time>2018-11-16T12:44:41Z</time>
      </trkpt>
      <trkpt lat="43.76831" lon="5.24384">
        <ele>234.995224</ele>
        <time>2018-11-16T12:44:56Z</time>
      </trkpt>
      <trkpt lat="43.76821" lon="5.24356">
        <ele>233.31958</ele>
        <time>2018-11-16T12:45:11Z</time>
      </trkpt>
      <trkpt lat="43.76818" lon="5.24333">
        <ele>232.326874</ele>
        <time>2018-11-16T12:45:26Z</time>
      </trkpt>
      <trkpt lat="43.76811" lon="5.24306">
        <ele>229.676605</ele>
        <time>2018-11-16T12:45:42Z</time>
      </trkpt>
      <trkpt lat="43.76796" lon="5.2429">
        <ele>227.253174</ele>
        <time>2018-11-16T12:45:57Z</time>
      </trkpt>
      <trkpt lat="43.76783" lon="5.24269">
        <ele>225.016235</ele>
        <time>2018-11-16T12:46:13Z</time>
      </trkpt>
      <trkpt lat="43.76773" lon="5.24246">
        <ele>223.151276</ele>
        <time>2018-11-16T12:46:28Z</time>
      </trkpt>
      <trkpt lat="43.7676" lon="5.2425">
        <ele>222.608078</ele>
        <time>2018-11-16T12:46:57Z</time>
      </trkpt>
      <trkpt lat="43.76747" lon="5.24265">
        <ele>222.498428</ele>
        <time>2018-11-16T12:47:13Z</time>
      </trkpt>
      <trkpt lat="43.76731" lon="5.24281">
        <ele>223.011856</ele>
        <time>2018-11-16T12:47:29Z</time>
      </trkpt>
      <trkpt lat="43.76734" lon="5.24253">
        <ele>221.745773</ele>
        <time>2018-11-16T12:47:44Z</time>
      </trkpt>
      <trkpt lat="43.76744" lon="5.24233">
        <ele>221.36792</ele>
        <time>2018-11-16T12:48:00Z</time>
      </trkpt>
      <trkpt lat="43.76721" lon="5.24229">
        <ele>220.286072</ele>
        <time>2018-11-16T12:48:15Z</time>
      </trkpt>
      <trkpt lat="43.76701" lon="5.2422">
        <ele>218.781143</ele>
        <time>2018-11-16T12:48:30Z</time>
      </trkpt>
      <trkpt lat="43.76686" lon="5.24221">
        <ele>218.165512</ele>
        <time>2018-11-16T12:48:46Z</time>
      </trkpt>
      <trkpt lat="43.76666" lon="5.24218">
        <ele>216.912201</ele>
        <time>2018-11-16T12:49:02Z</time>
      </trkpt>
      <trkpt lat="43.76653" lon="5.24194">
        <ele>215.067322</ele>
        <time>2018-11-16T12:49:17Z</time>
      </trkpt>
      <trkpt lat="43.76647" lon="5.2417">
        <ele>212.633011</ele>
        <time>2018-11-16T12:49:33Z</time>
      </trkpt>
      <trkpt lat="43.76641" lon="5.24148">
        <ele>209.718994</ele>
        <time>2018-11-16T12:49:49Z</time>
      </trkpt>
      <trkpt lat="43.76633" lon="5.24126">
        <ele>206.616058</ele>
        <time>2018-11-16T12:50:05Z</time>
      </trkpt>
      <trkpt lat="43.7662" lon="5.24118">
        <ele>205.406067</ele>
        <time>2018-11-16T12:50:24Z</time>
      </trkpt>
      <trkpt lat="43.76609" lon="5.24105">
        <ele>203.507767</ele>
        <time>2018-11-16T12:50:40Z</time>
      </trkpt>
      <trkpt lat="43.76602" lon="5.24086">
        <ele>200.599472</ele>
        <time>2018-11-16T12:50:56Z</time>
      </trkpt>
      <trkpt lat="43.76594" lon="5.24063">
        <ele>200.327927</ele>
        <time>2018-11-16T12:51:11Z</time>
      </trkpt>
      <trkpt lat="43.76574" lon="5.24044">
        <ele>199.521439</ele>
        <time>2018-11-16T12:51:27Z</time>
      </trkpt>
      <trkpt lat="43.76552" lon="5.24038">
        <ele>198.185608</ele>
        <time>2018-11-16T12:51:42Z</time>
      </trkpt>
      <trkpt lat="43.76533" lon="5.24027">
        <ele>196.552704</ele>
        <time>2018-11-16T12:51:58Z</time>
      </trkpt>
      <trkpt lat="43.76516" lon="5.24018">
        <ele>194.765381</ele>
        <time>2018-11-16T12:52:13Z</time>
      </trkpt>
      <trkpt lat="43.76495" lon="5.24013">
        <ele>193.021729</ele>
        <time>2018-11-16T12:52:29Z</time>
      </trkpt>
      <trkpt lat="43.76476" lon="5.24012">
        <ele>192.443619</ele>
        <time>2018-11-16T12:52:44Z</time>
      </trkpt>
      <trkpt lat="43.76457" lon="5.24011">
        <ele>191.844757</ele>
        <time>2018-11-16T12:53:00Z</time>
      </trkpt>
      <trkpt lat="43.76437" lon="5.24002">
        <ele>189.961151</ele>
        <time>2018-11-16T12:53:15Z</time>
      </trkpt>
      <trkpt lat="43.76416" lon="5.23997">
        <ele>189.440308</ele>
        <time>2018-11-16T12:53:31Z</time>
      </trkpt>
      <trkpt lat="43.76397" lon="5.24">
        <ele>189.494522</ele>
        <time>2018-11-16T12:53:46Z</time>
      </trkpt>
      <trkpt lat="43.76378" lon="5.23987">
        <ele>190.819183</ele>
        <time>2018-11-16T12:54:02Z</time>
      </trkpt>
      <trkpt lat="43.76361" lon="5.23975">
        <ele>191.02829</ele>
        <time>2018-11-16T12:54:17Z</time>
      </trkpt>
      <trkpt lat="43.76341" lon="5.23964">
        <ele>190.167053</ele>
        <time>2018-11-16T12:54:33Z</time>
      </trkpt>
      <trkpt lat="43.76323" lon="5.23951">
        <ele>189.050903</ele>
        <time>2018-11-16T12:54:49Z</time>
      </trkpt>
      <trkpt lat="43.76305" lon="5.23948">
        <ele>188.432785</ele>
        <time>2018-11-16T12:55:04Z</time>
      </trkpt>
      <trkpt lat="43.76282" lon="5.23949">
        <ele>187.917664</ele>
        <time>2018-11-16T12:55:20Z</time>
      </trkpt>
      <trkpt lat="43.76266" lon="5.2394">
        <ele>186.079193</ele>
        <time>2018-11-16T12:55:35Z</time>
      </trkpt>
      <trkpt lat="43.76255" lon="5.23919">
        <ele>181.764786</ele>
        <time>2018-11-16T12:55:50Z</time>
      </trkpt>
      <trkpt lat="43.76247" lon="5.23892">
        <ele>183.821777</ele>
        <time>2018-11-16T12:56:06Z</time>
      </trkpt>
      <trkpt lat="43.76231" lon="5.2387">
        <ele>184.064438</ele>
        <time>2018-11-16T12:56:21Z</time>
      </trkpt>
      <trkpt lat="43.76211" lon="5.23871">
        <ele>180.729584</ele>
        <time>2018-11-16T12:56:37Z</time>
      </trkpt>
      <trkpt lat="43.7619" lon="5.23873">
        <ele>177.149963</ele>
        <time>2018-11-16T12:56:53Z</time>
      </trkpt>
      <trkpt lat="43.7617" lon="5.23868">
        <ele>174.018768</ele>
        <time>2018-11-16T12:57:09Z</time>
      </trkpt>
      <trkpt lat="43.7615" lon="5.23859">
        <ele>171.283447</ele>
        <time>2018-11-16T12:57:25Z</time>
      </trkpt>
      <trkpt lat="43.76132" lon="5.23852">
        <ele>169.090057</ele>
        <time>2018-11-16T12:57:41Z</time>
      </trkpt>
      <trkpt lat="43.76114" lon="5.23843">
        <ele>166.742981</ele>
        <time>2018-11-16T12:57:57Z</time>
      </trkpt>
      <trkpt lat="43.76097" lon="5.23833">
        <ele>164.725357</ele>
        <time>2018-11-16T12:58:12Z</time>
      </trkpt>
      <trkpt lat="43.76079" lon="5.23821">
        <ele>164.104385</ele>
        <time>2018-11-16T12:58:27Z</time>
      </trkpt>
      <trkpt lat="43.7606" lon="5.23806">
        <ele>164.103912</ele>
        <time>2018-11-16T12:58:43Z</time>
      </trkpt>
      <trkpt lat="43.76043" lon="5.23794">
        <ele>163.433167</ele>
        <time>2018-11-16T12:58:58Z</time>
      </trkpt>
      <trkpt lat="43.76024" lon="5.23783">
        <ele>162.112869</ele>
        <time>2018-11-16T12:59:14Z</time>
      </trkpt>
      <trkpt lat="43.76003" lon="5.23767">
        <ele>160.201309</ele>
        <time>2018-11-16T12:59:30Z</time>
      </trkpt>
      <trkpt lat="43.75985" lon="5.23755">
        <ele>159.101807</ele>
        <time>2018-11-16T12:59:46Z</time>
      </trkpt>
      <trkpt lat="43.75969" lon="5.2374">
        <ele>158.946365</ele>
        <time>2018-11-16T13:00:01Z</time>
      </trkpt>
      <trkpt lat="43.75955" lon="5.23723">
        <ele>158.942841</ele>
        <time>2018-11-16T13:00:16Z</time>
      </trkpt>
      <trkpt lat="43.75942" lon="5.23702">
        <ele>158.500153</ele>
        <time>2018-11-16T13:00:31Z</time>
      </trkpt>
      <trkpt lat="43.75925" lon="5.23683">
        <ele>156.312958</ele>
        <time>2018-11-16T13:00:47Z</time>
      </trkpt>
      <trkpt lat="43.7591" lon="5.23666">
        <ele>154.882202</ele>
        <time>2018-11-16T13:01:03Z</time>
      </trkpt>
      <trkpt lat="43.75893" lon="5.23644">
        <ele>155.007217</ele>
        <time>2018-11-16T13:01:19Z</time>
      </trkpt>
      <trkpt lat="43.75882" lon="5.23618">
        <ele>155.186951</ele>
        <time>2018-11-16T13:01:35Z</time>
      </trkpt>
      <trkpt lat="43.75876" lon="5.23586">
        <ele>155.529541</ele>
        <time>2018-11-16T13:01:50Z</time>
      </trkpt>
      <trkpt lat="43.75864" lon="5.23577">
        <ele>154.661789</ele>
        <time>2018-11-16T13:02:18Z</time>
      </trkpt>
    </trkseg>
  </trk>
</gpx>